Raw Data From Station

Date Time Current Temp Hourly Low / High Today’s Low / High Pressure Humidity Rain
04/18/2020 06:52 AM 43.9°F 43.9°F / 45.3°F 43.9°F / 51.4°F 29.79 inHg 45% 0.00″
04/18/2020 05:52 AM 45.1°F 45.1°F / 46.0°F 45.1°F / 51.4°F 29.78 inHg 42% 0.00″
04/18/2020 04:50 AM 46.2°F 46.2°F / 47.1°F 46.2°F / 51.4°F 29.79 inHg 40% 0.00″
04/18/2020 03:50 AM 47.8°F 47.8°F / 49.5°F 47.8°F / 51.4°F 29.79 inHg 38% 0.00″
04/18/2020 02:50 AM 49.5°F 48.9°F / 49.5°F 48.9°F / 51.4°F 29.79 inHg 34% 0.00″
04/18/2020 01:49 AM 49.3°F 49.3°F / 51.1°F 49.3°F / 51.4°F 29.81 inHg 32% 0.00″
04/18/2020 12:49 AM 51.1°F 51.1°F / 51.4°F 51.1°F / 51.4°F 29.82 inHg 31% 0.00″
04/17/2020 11:49 PM 50.7°F 50.4°F / 50.7°F 47.1°F / 67.3°F 29.83 inHg 31% 0.00″
04/17/2020 10:49 PM 51.3°F 51.3°F / 52.5°F 47.1°F / 67.3°F 29.83 inHg 29% 0.00″
04/17/2020 09:49 PM 52.7°F 52.5°F / 53.1°F 47.1°F / 67.3°F 29.83 inHg 26% 0.00″
04/17/2020 08:49 PM 53.4°F 53.4°F / 55.9°F 47.1°F / 67.3°F 29.80 inHg 26% 0.00″
04/17/2020 07:49 PM 57.0°F 57.0°F / 59.4°F 47.1°F / 67.3°F 29.78 inHg 23% 0.00″
04/17/2020 06:49 PM 59.7°F 59.7°F / 61.3°F 47.1°F / 67.3°F 29.78 inHg 21% 0.00″
04/17/2020 05:49 PM 61.3°F 61.2°F / 63.1°F 47.1°F / 67.3°F 29.78 inHg 21% 0.00″
04/17/2020 04:48 PM 63.1°F 63.1°F / 66.6°F 47.1°F / 67.3°F 29.77 inHg 18% 0.00″
04/17/2020 03:48 PM 66.4°F 66.2°F / 66.9°F 47.1°F / 67.3°F 29.77 inHg 14% 0.00″
04/17/2020 02:48 PM 67.1°F 65.1°F / 67.1°F 47.1°F / 67.1°F 29.78 inHg 16% 0.00″
04/17/2020 01:48 PM 64.6°F 62.4°F / 64.6°F 47.1°F / 64.6°F 29.81 inHg 17% 0.00″
04/17/2020 12:47 PM 62.2°F 62.1°F / 62.8°F 47.1°F / 62.8°F 29.82 inHg 19% 0.00″
04/17/2020 11:47 AM 61.0°F 59.4°F / 61.0°F 47.1°F / 61.0°F 29.85 inHg 21% 0.00″
04/17/2020 10:45 AM 58.5°F 56.5°F / 58.5°F 47.1°F / 58.5°F 29.86 inHg 22% 0.00″
04/17/2020 09:45 AM 56.3°F 55.2°F / 56.5°F 47.1°F / 56.5°F 29.85 inHg 23% 0.00″
04/17/2020 08:45 AM 54.9°F 50.7°F / 54.9°F 47.1°F / 54.9°F 29.84 inHg 24% 0.00″
04/17/2020 07:45 AM 48.7°F 48.0°F / 48.7°F 47.1°F / 51.1°F 29.82 inHg 31% 0.00″
04/17/2020 06:44 AM 48.2°F 48.2°F / 49.1°F 47.1°F / 51.1°F 29.81 inHg 26% 0.00″
04/17/2020 05:44 AM 49.3°F 49.3°F / 50.4°F 47.1°F / 51.1°F 29.80 inHg 25% 0.00″
04/17/2020 04:44 AM 50.7°F 49.5°F / 51.1°F 47.1°F / 51.1°F 29.79 inHg 25% 0.00″
04/17/2020 03:44 AM 48.9°F 47.1°F / 48.9°F 47.1°F / 49.6°F 29.78 inHg 27% 0.00″
04/17/2020 02:44 AM 47.1°F 47.1°F / 48.0°F 47.1°F / 49.6°F 29.79 inHg 28% 0.00″
04/17/2020 01:44 AM 48.0°F 47.8°F / 48.7°F 47.8°F / 49.6°F 29.80 inHg 28% 0.00″
04/17/2020 12:44 AM 48.7°F 48.6°F / 49.6°F 48.6°F / 49.6°F 29.81 inHg 28% 0.00″
04/16/2020 11:44 PM 49.8°F 49.8°F / 51.3°F 42.1°F / 67.8°F 29.81 inHg 26% 0.00″
04/16/2020 10:44 PM 52.5°F 52.5°F / 55.8°F 42.1°F / 67.8°F 29.82 inHg 23% 0.00″
04/16/2020 09:44 PM 56.3°F 56.3°F / 57.4°F 42.1°F / 67.8°F 29.81 inHg 20% 0.00″
04/16/2020 08:44 PM 57.4°F 57.4°F / 58.8°F 42.1°F / 67.8°F 29.78 inHg 19% 0.00″
04/16/2020 07:43 PM 59.7°F 59.7°F / 63.7°F 42.1°F / 67.8°F 29.76 inHg 16% 0.00″
04/16/2020 06:43 PM 64.4°F 64.4°F / 66.0°F 42.1°F / 67.8°F 29.75 inHg 14% 0.00″
04/16/2020 05:43 PM 66.4°F 66.4°F / 67.8°F 42.1°F / 67.8°F 29.75 inHg 14% 0.00″
04/16/2020 04:43 PM 66.9°F 66.6°F / 67.3°F 42.1°F / 67.3°F 29.75 inHg 14% 0.00″
04/16/2020 03:43 PM 67.3°F 65.8°F / 67.3°F 42.1°F / 67.3°F 29.78 inHg 17% 0.00″
04/16/2020 02:41 PM 66.0°F 64.9°F / 66.0°F 42.1°F / 66.0°F 29.80 inHg 18% 0.00″
04/16/2020 01:41 PM 64.6°F 63.3°F / 64.6°F 42.1°F / 64.6°F 29.81 inHg 21% 0.00″
04/16/2020 12:41 PM 62.1°F 60.6°F / 62.2°F 42.1°F / 62.2°F 29.83 inHg 22% 0.00″
04/16/2020 11:41 AM 60.3°F 58.5°F / 60.3°F 42.1°F / 60.3°F 29.86 inHg 22% 0.00″
04/16/2020 09:41 AM 54.7°F 51.3°F / 54.7°F 42.1°F / 54.7°F 29.89 inHg 25% 0.00″
04/16/2020 12:39 AM 45.0°F 44.2°F / 45.1°F 44.2°F / 45.1°F 29.92 inHg 28% 0.00″
04/15/2020 11:39 PM 45.7°F 45.7°F / 47.5°F 31.3°F / 58.6°F 29.92 inHg 28% 0.00″
04/15/2020 10:39 PM 48.0°F 47.8°F / 48.0°F 31.3°F / 58.6°F 29.92 inHg 26% 0.00″
04/15/2020 08:39 PM 47.7°F 47.7°F / 51.1°F 31.3°F / 58.6°F 29.90 inHg 28% 0.00″
04/15/2020 07:38 PM 54.0°F 54.0°F / 56.7°F 31.3°F / 58.6°F 29.90 inHg 23% 0.00″
04/15/2020 06:38 PM 57.0°F 57.0°F / 58.3°F 31.3°F / 58.6°F 29.90 inHg 20% 0.00″
04/15/2020 05:38 PM 58.5°F 57.4°F / 58.5°F 31.3°F / 58.5°F 29.91 inHg 20% 0.00″
04/15/2020 04:38 PM 57.9°F 57.2°F / 58.1°F 31.3°F / 58.1°F 29.92 inHg 17% 0.00″
04/15/2020 03:38 PM 57.0°F 56.1°F / 57.0°F 31.3°F / 57.0°F 29.94 inHg 20% 0.00″
04/15/2020 02:38 PM 56.1°F 54.9°F / 56.3°F 31.3°F / 56.3°F 29.96 inHg 22% 0.00″
04/15/2020 01:37 PM 54.1°F 53.2°F / 54.1°F 31.3°F / 54.1°F 29.99 inHg 25% 0.00″
04/15/2020 12:37 PM 52.9°F 51.6°F / 52.9°F 31.3°F / 52.9°F 30.00 inHg 25% 0.00″
04/15/2020 11:37 AM 50.4°F 48.7°F / 50.4°F 31.3°F / 50.4°F 30.03 inHg 30% 0.00″
04/15/2020 10:37 AM 47.8°F 45.1°F / 47.8°F 31.3°F / 47.8°F 30.03 inHg 37% 0.00″
04/15/2020 09:37 AM 42.3°F 37.8°F / 42.3°F 31.3°F / 42.3°F 30.03 inHg 38% 0.00″
04/15/2020 08:37 AM 35.6°F 32.5°F / 35.6°F 31.3°F / 36.9°F 30.04 inHg 66% 0.00″
04/15/2020 07:37 AM 31.6°F 31.5°F / 32.7°F 31.3°F / 36.9°F 30.03 inHg 63% 0.00″
04/15/2020 06:37 AM 33.6°F 31.3°F / 33.6°F 31.3°F / 36.9°F 30.01 inHg 59% 0.00″
04/15/2020 05:37 AM 31.6°F 31.6°F / 32.7°F 31.6°F / 36.9°F 30.02 inHg 64% 0.00″
04/15/2020 04:37 AM 33.1°F 33.1°F / 34.3°F 33.1°F / 36.9°F 30.01 inHg 61% 0.00″
04/15/2020 03:36 AM 35.8°F 33.6°F / 36.0°F 33.6°F / 36.9°F 30.02 inHg 57% 0.00″
04/15/2020 02:36 AM 34.3°F 34.3°F / 34.9°F 34.3°F / 36.9°F 30.02 inHg 55% 0.00″
04/15/2020 01:36 AM 35.1°F 35.1°F / 36.0°F 35.1°F / 36.9°F 30.02 inHg 49% 0.00″
04/15/2020 12:36 AM 36.9°F 35.8°F / 36.9°F 35.8°F / 36.9°F 30.03 inHg 41% 0.00″
04/14/2020 10:34 PM 38.8°F 37.8°F / 38.8°F 32.5°F / 55.8°F 30.01 inHg 42% 0.01″
04/14/2020 09:34 PM 38.1°F 38.1°F / 40.8°F 32.5°F / 55.8°F 30.00 inHg 41% 0.01″
04/14/2020 08:34 PM 42.3°F 42.1°F / 43.5°F 32.5°F / 55.8°F 29.98 inHg 37% 0.01″
04/14/2020 07:34 PM 46.2°F 46.2°F / 51.1°F 32.5°F / 55.8°F 29.97 inHg 34% 0.01″
04/14/2020 06:34 PM 52.7°F 52.7°F / 55.0°F 32.5°F / 55.8°F 29.97 inHg 26% 0.01″
04/14/2020 05:34 PM 55.8°F 54.3°F / 55.8°F 32.5°F / 55.8°F 29.96 inHg 24% 0.01″
04/14/2020 04:34 PM 54.7°F 53.8°F / 54.7°F 32.5°F / 54.7°F 29.96 inHg 23% 0.01″
04/14/2020 03:34 PM 53.2°F 52.5°F / 53.8°F 32.5°F / 53.8°F 29.98 inHg 24% 0.01″
04/14/2020 02:34 PM 52.5°F 52.0°F / 52.9°F 32.5°F / 52.9°F 29.99 inHg 26% 0.01″
04/14/2020 01:33 PM 51.4°F 50.4°F / 51.4°F 32.5°F / 51.4°F 30.01 inHg 31% 0.01″
04/14/2020 12:33 PM 48.9°F 48.6°F / 49.1°F 32.5°F / 49.1°F 30.02 inHg 34% 0.01″
04/14/2020 11:33 AM 47.5°F 45.9°F / 47.5°F 32.5°F / 47.5°F 30.03 inHg 43% 0.01″
04/14/2020 10:33 AM 45.0°F 43.0°F / 45.0°F 32.5°F / 45.0°F 30.03 inHg 53% 0.01″
04/14/2020 09:33 AM 40.8°F 38.7°F / 40.8°F 32.5°F / 40.8°F 30.02 inHg 64% 0.01″
04/14/2020 08:33 AM 36.1°F 34.2°F / 36.1°F 32.5°F / 40.1°F 30.02 inHg 84% 0.01″
04/14/2020 07:33 AM 33.3°F 32.5°F / 33.3°F 32.5°F / 40.1°F 30.00 inHg 85% 0.01″
04/14/2020 06:33 AM 33.3°F 32.5°F / 33.3°F 32.5°F / 40.1°F 29.96 inHg 83% 0.01″
04/14/2020 05:33 AM 33.6°F 33.6°F / 35.6°F 33.6°F / 40.1°F 29.93 inHg 81% 0.01″
04/14/2020 04:32 AM 36.0°F 36.0°F / 36.7°F 36.0°F / 40.1°F 29.93 inHg 80% 0.01″
04/14/2020 03:32 AM 37.0°F 37.0°F / 37.6°F 37.0°F / 40.1°F 29.91 inHg 80% 0.00″
04/14/2020 02:32 AM 39.9°F 39.9°F / 40.1°F 39.0°F / 40.1°F 29.92 inHg 75% 0.00″
04/14/2020 01:32 AM 39.7°F 39.7°F / 39.7°F 39.0°F / 39.7°F 29.91 inHg 74% 0.00″
04/14/2020 12:31 AM 39.4°F 39.0°F / 39.6°F 39.0°F / 39.6°F 29.91 inHg 76% 0.00″
04/13/2020 11:31 PM 39.9°F 39.7°F / 40.6°F 39.7°F / 55.9°F 29.88 inHg 69% 0.00″
04/13/2020 10:30 PM 42.4°F 42.4°F / 44.4°F 42.4°F / 55.9°F 29.85 inHg 63% 0.00″
04/13/2020 09:30 PM 45.0°F 44.1°F / 45.0°F 43.9°F / 55.9°F 29.83 inHg 54% 0.00″
04/13/2020 08:30 PM 44.1°F 44.1°F / 47.3°F 44.1°F / 55.9°F 29.78 inHg 60% 0.00″
04/13/2020 07:30 PM 49.8°F 49.8°F / 50.7°F 44.6°F / 55.9°F 29.75 inHg 51% 0.00″
04/13/2020 06:30 PM 52.5°F 52.5°F / 54.0°F 44.6°F / 55.9°F 29.74 inHg 45% 0.00″
04/13/2020 05:30 PM 54.9°F 54.3°F / 55.4°F 44.6°F / 55.9°F 29.72 inHg 33% 0.00″
04/13/2020 04:30 PM 55.8°F 53.8°F / 55.9°F 44.6°F / 55.9°F 29.70 inHg 33% 0.00″
04/13/2020 03:30 PM 52.5°F 52.0°F / 52.9°F 44.6°F / 52.9°F 29.71 inHg 40% 0.00″
04/13/2020 02:30 PM 51.8°F 49.8°F / 52.2°F 44.6°F / 52.2°F 29.73 inHg 42% 0.00″
04/13/2020 01:30 PM 48.6°F 48.4°F / 49.3°F 44.6°F / 50.7°F 29.76 inHg 50% 0.00″
04/13/2020 12:30 PM 50.7°F 49.8°F / 50.7°F 44.6°F / 50.7°F 29.78 inHg 47% 0.00″
04/13/2020 11:30 AM 49.5°F 47.8°F / 49.5°F 44.6°F / 49.5°F 29.79 inHg 52% 0.00″
04/13/2020 10:30 AM 48.6°F 48.2°F / 48.6°F 44.6°F / 48.6°F 29.80 inHg 54% 0.00″
04/13/2020 09:30 AM 47.5°F 46.2°F / 47.5°F 44.6°F / 47.7°F 29.81 inHg 56% 0.00″
04/13/2020 08:30 AM 45.3°F 44.8°F / 45.3°F 44.6°F / 47.7°F 29.82 inHg 63% 0.00″
04/13/2020 07:30 AM 44.6°F 44.6°F / 45.0°F 44.6°F / 47.7°F 29.82 inHg 64% 0.00″
04/13/2020 05:30 AM 45.9°F 45.9°F / 46.2°F 45.9°F / 47.7°F 29.81 inHg 60% 0.00″
04/13/2020 04:29 AM 46.6°F 46.6°F / 46.8°F 46.6°F / 47.7°F 29.81 inHg 57% 0.00″
04/13/2020 03:29 AM 46.9°F 46.8°F / 47.1°F 46.8°F / 47.7°F 29.81 inHg 56% 0.00″
04/13/2020 02:29 AM 46.8°F 46.8°F / 47.1°F 46.8°F / 47.7°F 29.81 inHg 57% 0.00″
04/13/2020 01:29 AM 47.1°F 46.9°F / 47.1°F 46.9°F / 47.7°F 29.83 inHg 57% 0.00″
04/13/2020 12:28 AM 47.5°F 47.3°F / 47.7°F 47.3°F / 47.7°F 29.84 inHg 57% 0.00″
04/12/2020 11:28 PM 47.8°F 47.8°F / 48.4°F 34.0°F / 59.0°F 29.83 inHg 56% 0.00″
04/12/2020 10:28 PM 48.9°F 48.9°F / 49.6°F 34.0°F / 59.0°F 29.82 inHg 53% 0.00″
04/12/2020 09:28 PM 50.5°F 50.5°F / 51.4°F 34.0°F / 59.0°F 29.79 inHg 49% 0.00″
04/12/2020 08:28 PM 52.3°F 52.3°F / 53.1°F 34.0°F / 59.0°F 29.75 inHg 46% 0.00″
04/12/2020 07:28 PM 53.8°F 53.8°F / 54.3°F 34.0°F / 59.0°F 29.72 inHg 46% 0.00″
04/12/2020 06:28 PM 55.8°F 55.2°F / 55.9°F 34.0°F / 59.0°F 29.71 inHg 41% 0.00″
04/12/2020 05:28 PM 55.8°F 55.8°F / 58.5°F 34.0°F / 59.0°F 29.70 inHg 40% 0.00″
04/12/2020 04:28 PM 57.7°F 57.0°F / 57.7°F 34.0°F / 57.7°F 29.71 inHg 37% 0.00″
04/12/2020 03:28 PM 57.0°F 55.9°F / 57.2°F 34.0°F / 57.7°F 29.71 inHg 40% 0.00″
04/12/2020 02:28 PM 57.0°F 56.7°F / 57.4°F 34.0°F / 57.4°F 29.70 inHg 40% 0.00″
04/12/2020 01:28 PM 55.0°F 54.1°F / 55.2°F 34.0°F / 55.2°F 29.69 inHg 42% 0.00″
04/12/2020 12:28 PM 52.7°F 52.0°F / 52.9°F 34.0°F / 52.9°F 29.70 inHg 44% 0.00″
04/12/2020 11:28 AM 48.7°F 48.4°F / 48.7°F 34.0°F / 48.7°F 29.69 inHg 49% 0.00″
04/12/2020 10:28 AM 47.3°F 44.8°F / 47.3°F 34.0°F / 47.3°F 29.67 inHg 51% 0.00″
04/12/2020 09:27 AM 43.2°F 41.5°F / 43.2°F 34.0°F / 45.0°F 29.64 inHg 54% 0.00″
04/12/2020 08:27 AM 36.9°F 35.1°F / 36.9°F 34.0°F / 45.0°F 29.61 inHg 67% 0.00″
04/12/2020 07:27 AM 34.0°F 34.0°F / 34.2°F 34.0°F / 45.0°F 29.58 inHg 69% 0.00″
04/12/2020 06:27 AM 34.0°F 34.0°F / 35.4°F 34.0°F / 45.0°F 29.55 inHg 70% 0.00″
04/12/2020 05:27 AM 36.1°F 36.1°F / 36.9°F 36.1°F / 45.0°F 29.55 inHg 67% 0.00″
04/12/2020 04:27 AM 37.8°F 37.8°F / 38.5°F 37.8°F / 45.0°F 29.53 inHg 64% 0.00″
04/12/2020 03:27 AM 38.8°F 38.8°F / 39.7°F 38.8°F / 45.0°F 29.53 inHg 57% 0.00″
04/12/2020 02:27 AM 40.5°F 40.5°F / 41.4°F 40.5°F / 45.0°F 29.53 inHg 49% 0.00″
04/12/2020 01:27 AM 43.0°F 43.0°F / 44.1°F 43.0°F / 45.0°F 29.55 inHg 44% 0.00″
04/12/2020 12:26 AM 44.6°F 44.6°F / 45.0°F 44.6°F / 45.0°F 29.59 inHg 40% 0.00″
04/11/2020 11:26 PM 45.1°F 45.1°F / 45.7°F 40.8°F / 61.2°F 29.62 inHg 38% 0.00″
04/11/2020 10:26 PM 46.0°F 46.0°F / 46.0°F 40.8°F / 61.2°F 29.62 inHg 33% 0.00″
04/11/2020 09:26 PM 46.6°F 46.6°F / 46.8°F 40.8°F / 61.2°F 29.61 inHg 31% 0.00″
04/11/2020 08:26 PM 47.5°F 47.5°F / 49.8°F 40.8°F / 61.2°F 29.59 inHg 29% 0.00″
04/11/2020 07:26 PM 52.5°F 52.5°F / 54.9°F 40.8°F / 61.2°F 29.57 inHg 22% 0.00″
04/11/2020 06:26 PM 56.5°F 56.5°F / 57.7°F 40.8°F / 61.2°F 29.58 inHg 18% 0.00″
04/11/2020 05:26 PM 58.5°F 58.5°F / 58.8°F 40.8°F / 61.2°F 29.58 inHg 16% 0.00″
04/11/2020 04:26 PM 59.5°F 59.5°F / 60.1°F 40.8°F / 61.2°F 29.59 inHg 18% 0.00″
04/11/2020 03:26 PM 61.0°F 59.9°F / 61.2°F 40.8°F / 61.2°F 29.60 inHg 17% 0.00″
04/11/2020 02:26 PM 59.7°F 59.7°F / 60.4°F 40.8°F / 60.8°F 29.62 inHg 18% 0.00″
04/11/2020 01:26 PM 60.3°F 59.5°F / 60.3°F 40.8°F / 60.3°F 29.64 inHg 19% 0.00″
04/11/2020 12:26 PM 58.5°F 57.6°F / 58.5°F 40.8°F / 58.5°F 29.67 inHg 20% 0.00″
04/11/2020 11:26 AM 55.9°F 55.2°F / 55.9°F 40.8°F / 55.9°F 29.70 inHg 21% 0.00″
04/11/2020 10:26 AM 54.0°F 52.5°F / 54.0°F 40.8°F / 54.0°F 29.72 inHg 24% 0.00″
04/11/2020 09:26 AM 50.7°F 48.4°F / 50.7°F 40.8°F / 50.7°F 29.72 inHg 25% 0.00″
04/11/2020 08:26 AM 42.3°F 40.8°F / 42.3°F 40.8°F / 45.3°F 29.71 inHg 35% 0.00″
04/11/2020 07:25 AM 41.2°F 41.2°F / 41.7°F 41.2°F / 45.3°F 29.72 inHg 32% 0.00″
04/11/2020 06:25 AM 41.9°F 41.7°F / 41.9°F 41.7°F / 45.3°F 29.72 inHg 33% 0.00″
04/11/2020 05:25 AM 42.1°F 42.1°F / 42.8°F 42.1°F / 45.3°F 29.73 inHg 36% 0.00″
04/11/2020 04:25 AM 42.8°F 42.8°F / 43.9°F 42.4°F / 45.3°F 29.73 inHg 36% 0.00″
04/11/2020 03:25 AM 42.6°F 42.4°F / 42.6°F 42.4°F / 45.3°F 29.73 inHg 34% 0.00″
04/11/2020 02:25 AM 42.8°F 42.8°F / 43.9°F 42.8°F / 45.3°F 29.74 inHg 36% 0.00″
04/11/2020 01:25 AM 45.3°F 45.1°F / 45.3°F 45.0°F / 45.3°F 29.75 inHg 38% 0.00″
04/11/2020 12:25 AM 45.1°F 45.0°F / 45.1°F 45.0°F / 45.1°F 29.75 inHg 40% 0.00″
04/10/2020 11:25 PM 43.9°F 43.9°F / 44.6°F 40.6°F / 65.7°F 29.75 inHg 40% 0.00″
04/10/2020 10:25 PM 45.1°F 45.1°F / 46.6°F 40.6°F / 65.7°F 29.76 inHg 36% 0.00″
04/10/2020 09:25 PM 48.0°F 48.0°F / 50.5°F 40.6°F / 65.7°F 29.76 inHg 33% 0.00″
04/10/2020 08:25 PM 52.9°F 52.9°F / 55.0°F 40.6°F / 65.7°F 29.75 inHg 28% 0.00″
04/10/2020 07:25 PM 58.6°F 58.6°F / 60.4°F 40.6°F / 65.7°F 29.74 inHg 21% 0.00″
04/10/2020 06:25 PM 63.0°F 63.0°F / 63.7°F 40.6°F / 65.7°F 29.72 inHg 19% 0.00″
04/10/2020 05:24 PM 64.4°F 64.2°F / 64.8°F 40.6°F / 65.7°F 29.74 inHg 19% 0.00″
04/10/2020 04:24 PM 64.8°F 64.8°F / 65.7°F 40.6°F / 65.7°F 29.75 inHg 21% 0.00″
04/10/2020 03:24 PM 64.9°F 64.0°F / 64.9°F 40.6°F / 64.9°F 29.77 inHg 21% 0.00″
04/10/2020 02:24 PM 64.8°F 63.1°F / 64.8°F 40.6°F / 64.8°F 29.80 inHg 22% 0.00″
04/10/2020 01:24 PM 62.6°F 62.2°F / 62.6°F 40.6°F / 62.6°F 29.83 inHg 22% 0.00″
04/10/2020 12:24 PM 61.0°F 60.4°F / 61.0°F 40.6°F / 61.0°F 29.86 inHg 23% 0.00″
04/10/2020 11:24 AM 59.2°F 58.8°F / 59.2°F 40.6°F / 59.2°F 29.87 inHg 27% 0.00″
04/10/2020 10:24 AM 57.0°F 55.0°F / 57.0°F 40.6°F / 57.0°F 29.88 inHg 29% 0.00″
04/10/2020 09:24 AM 52.0°F 47.7°F / 52.0°F 40.6°F / 52.0°F 29.89 inHg 32% 0.00″
04/10/2020 08:24 AM 43.5°F 42.6°F / 43.5°F 40.6°F / 46.0°F 29.90 inHg 52% 0.00″
04/10/2020 07:23 AM 41.2°F 40.6°F / 41.2°F 40.6°F / 46.0°F 29.89 inHg 48% 0.00″
04/10/2020 06:23 AM 41.4°F 40.8°F / 41.5°F 40.8°F / 46.0°F 29.87 inHg 44% 0.00″
04/10/2020 05:23 AM 41.2°F 41.2°F / 41.5°F 41.2°F / 46.0°F 29.86 inHg 44% 0.00″
04/10/2020 04:23 AM 42.3°F 41.7°F / 42.4°F 41.4°F / 46.0°F 29.85 inHg 42% 0.00″
04/10/2020 03:22 AM 41.7°F 41.7°F / 42.3°F 41.4°F / 46.0°F 29.84 inHg 44% 0.00″
04/10/2020 02:22 AM 42.3°F 42.3°F / 43.0°F 42.3°F / 46.0°F 29.85 inHg 46% 0.00″
04/10/2020 01:22 AM 43.2°F 43.0°F / 43.2°F 43.0°F / 46.0°F 29.85 inHg 45% 0.00″
04/10/2020 12:22 AM 44.8°F 44.8°F / 46.0°F 44.8°F / 46.0°F 29.84 inHg 45% 0.00″
04/09/2020 11:22 PM 44.2°F 44.2°F / 44.8°F 44.2°F / 66.6°F 29.83 inHg 48% 0.00″
04/09/2020 10:22 PM 46.9°F 46.9°F / 49.3°F 46.9°F / 66.6°F 29.83 inHg 47% 0.00″
04/09/2020 09:21 PM 48.9°F 48.9°F / 50.7°F 47.5°F / 66.6°F 29.82 inHg 45% 0.00″
04/09/2020 08:21 PM 52.7°F 52.7°F / 55.0°F 47.5°F / 66.6°F 29.78 inHg 41% 0.00″
04/09/2020 07:21 PM 59.4°F 59.4°F / 61.0°F 47.5°F / 66.6°F 29.76 inHg 32% 0.00″
04/09/2020 06:21 PM 62.8°F 62.8°F / 64.0°F 47.5°F / 66.6°F 29.75 inHg 30% 0.00″
04/09/2020 05:20 PM 64.6°F 64.6°F / 66.2°F 47.5°F / 66.6°F 29.75 inHg 27% 0.00″
04/09/2020 04:20 PM 64.6°F 64.4°F / 64.8°F 47.5°F / 64.8°F 29.75 inHg 32% 0.00″
04/09/2020 03:20 PM 63.0°F 63.0°F / 64.0°F 47.5°F / 64.2°F 29.77 inHg 34% 0.00″
04/09/2020 02:20 PM 62.2°F 62.1°F / 63.0°F 47.5°F / 63.0°F 29.79 inHg 38% 0.00″
04/09/2020 01:20 PM 61.3°F 58.8°F / 61.3°F 47.5°F / 61.3°F 29.81 inHg 44% 0.00″
04/09/2020 12:20 PM 58.5°F 58.5°F / 59.4°F 47.5°F / 59.4°F 29.83 inHg 44% 0.00″
04/09/2020 11:20 AM 57.9°F 56.7°F / 57.9°F 47.5°F / 57.9°F 29.85 inHg 46% 0.00″
04/09/2020 10:20 AM 54.0°F 53.4°F / 54.0°F 47.5°F / 54.3°F 29.86 inHg 50% 0.00″
04/09/2020 09:20 AM 54.1°F 52.9°F / 54.1°F 47.5°F / 54.1°F 29.85 inHg 53% 0.00″
04/09/2020 08:20 AM 49.8°F 49.6°F / 49.8°F 47.5°F / 53.4°F 29.86 inHg 57% 0.00″
04/09/2020 07:19 AM 48.6°F 47.7°F / 48.6°F 47.5°F / 53.4°F 29.84 inHg 58% 0.00″
04/09/2020 06:19 AM 47.8°F 47.8°F / 48.6°F 47.8°F / 53.4°F 29.83 inHg 52% 0.00″
04/09/2020 05:19 AM 49.3°F 49.3°F / 50.0°F 49.3°F / 53.4°F 29.82 inHg 46% 0.00″
04/09/2020 04:18 AM 51.6°F 51.6°F / 52.0°F 50.5°F / 53.4°F 29.82 inHg 42% 0.00″
04/09/2020 03:18 AM 52.5°F 52.5°F / 53.1°F 50.5°F / 53.4°F 29.83 inHg 41% 0.00″
04/09/2020 02:18 AM 52.5°F 51.4°F / 52.5°F 50.5°F / 52.5°F 29.84 inHg 41% 0.00″
04/09/2020 01:18 AM 50.5°F 50.5°F / 50.7°F 50.5°F / 52.0°F 29.86 inHg 45% 0.00″
04/09/2020 12:18 AM 51.8°F 51.6°F / 52.0°F 51.6°F / 52.0°F 29.87 inHg 42% 0.00″
04/08/2020 11:18 PM 52.2°F 52.2°F / 52.5°F 45.5°F / 67.6°F 29.88 inHg 40% 0.00″
04/08/2020 10:18 PM 52.2°F 52.2°F / 52.3°F 45.5°F / 67.6°F 29.90 inHg 40% 0.00″
04/08/2020 09:17 PM 52.2°F 52.2°F / 52.5°F 45.5°F / 67.6°F 29.89 inHg 40% 0.00″
04/08/2020 08:17 PM 54.9°F 54.9°F / 56.5°F 45.5°F / 67.6°F 29.86 inHg 36% 0.00″
04/08/2020 07:17 PM 60.1°F 60.1°F / 61.3°F 45.5°F / 67.6°F 29.84 inHg 32% 0.00″
04/08/2020 06:17 PM 63.3°F 63.3°F / 64.8°F 45.5°F / 67.6°F 29.83 inHg 32% 0.00″
04/08/2020 05:17 PM 66.4°F 66.4°F / 66.7°F 45.5°F / 67.6°F 29.82 inHg 31% 0.00″
04/08/2020 04:17 PM 67.3°F 65.7°F / 67.3°F 45.5°F / 67.3°F 29.82 inHg 28% 0.00″
04/08/2020 03:17 PM 64.9°F 64.9°F / 65.7°F 45.5°F / 66.4°F 29.85 inHg 27% 0.00″
04/08/2020 02:17 PM 65.5°F 64.9°F / 65.5°F 45.5°F / 65.5°F 29.87 inHg 28% 0.00″
04/08/2020 01:16 PM 64.0°F 63.7°F / 64.2°F 45.5°F / 64.2°F 29.89 inHg 31% 0.00″
04/08/2020 12:16 PM 62.2°F 61.7°F / 62.2°F 45.5°F / 62.2°F 29.89 inHg 34% 0.00″
04/08/2020 11:16 AM 61.0°F 60.1°F / 61.0°F 45.5°F / 61.0°F 29.91 inHg 41% 0.00″
04/08/2020 10:16 AM 57.6°F 56.7°F / 57.6°F 45.5°F / 57.6°F 29.92 inHg 45% 0.00″
04/08/2020 09:16 AM 54.3°F 52.9°F / 54.3°F 45.5°F / 54.3°F 29.91 inHg 51% 0.00″
04/08/2020 08:16 AM 46.8°F 45.9°F / 46.8°F 45.5°F / 49.8°F 29.90 inHg 64% 0.00″
04/08/2020 07:16 AM 45.7°F 45.5°F / 45.9°F 45.5°F / 49.8°F 29.87 inHg 62% 0.00″
04/08/2020 06:16 AM 46.2°F 46.2°F / 46.6°F 46.2°F / 49.8°F 29.86 inHg 59% 0.00″
04/08/2020 05:16 AM 46.9°F 46.9°F / 47.8°F 46.9°F / 49.8°F 29.85 inHg 56% 0.00″
04/08/2020 04:16 AM 48.6°F 48.2°F / 48.6°F 47.7°F / 49.8°F 29.86 inHg 53% 0.00″
04/08/2020 03:16 AM 47.7°F 47.7°F / 48.4°F 47.7°F / 49.8°F 29.87 inHg 54% 0.00″
04/08/2020 02:16 AM 48.9°F 48.7°F / 48.9°F 48.0°F / 49.8°F 29.88 inHg 51% 0.00″
04/08/2020 01:16 AM 48.6°F 48.4°F / 48.6°F 48.4°F / 49.8°F 29.89 inHg 51% 0.00″
04/08/2020 12:16 AM 48.9°F 48.9°F / 49.8°F 48.9°F / 49.8°F 29.89 inHg 49% 0.00″
04/07/2020 11:15 PM 50.4°F 50.2°F / 50.4°F 40.8°F / 66.7°F 29.89 inHg 46% 0.00″
04/07/2020 10:15 PM 50.9°F 50.9°F / 51.3°F 40.8°F / 66.7°F 29.89 inHg 43% 0.00″
04/07/2020 09:15 PM 53.4°F 53.4°F / 54.3°F 40.8°F / 66.7°F 29.89 inHg 35% 0.00″
04/07/2020 08:15 PM 56.5°F 56.5°F / 57.6°F 40.8°F / 66.7°F 29.87 inHg 32% 0.00″
04/07/2020 07:15 PM 61.9°F 61.9°F / 62.4°F 40.8°F / 66.7°F 29.85 inHg 28% 0.00″
04/07/2020 06:15 PM 64.9°F 64.9°F / 65.1°F 40.8°F / 66.7°F 29.84 inHg 25% 0.00″
04/07/2020 05:14 PM 66.0°F 66.0°F / 66.6°F 40.8°F / 66.7°F 29.84 inHg 24% 0.00″
04/07/2020 04:14 PM 66.4°F 65.8°F / 66.4°F 40.8°F / 66.4°F 29.85 inHg 24% 0.00″
04/07/2020 03:14 PM 65.7°F 65.3°F / 65.8°F 40.8°F / 65.8°F 29.87 inHg 23% 0.00″
04/07/2020 02:14 PM 64.9°F 64.6°F / 64.9°F 40.8°F / 64.9°F 29.90 inHg 27% 0.00″
04/07/2020 01:14 PM 64.0°F 63.7°F / 64.0°F 40.8°F / 64.0°F 29.92 inHg 30% 0.00″
04/07/2020 12:14 PM 63.1°F 62.8°F / 63.1°F 40.8°F / 63.1°F 29.93 inHg 30% 0.00″
04/07/2020 11:14 AM 60.8°F 60.3°F / 60.8°F 40.8°F / 60.8°F 29.94 inHg 30% 0.00″
04/07/2020 10:14 AM 57.9°F 56.5°F / 57.9°F 40.8°F / 57.9°F 29.94 inHg 30% 0.00″
04/07/2020 09:14 AM 50.5°F 48.7°F / 50.5°F 40.8°F / 50.5°F 29.94 inHg 33% 0.00″
04/07/2020 08:14 AM 43.5°F 43.3°F / 43.5°F 40.8°F / 49.5°F 29.92 inHg 50% 0.00″
04/07/2020 07:14 AM 41.4°F 40.8°F / 41.4°F 40.8°F / 49.5°F 29.89 inHg 48% 0.00″
04/07/2020 06:14 AM 44.4°F 44.4°F / 44.8°F 44.2°F / 49.5°F 29.88 inHg 45% 0.00″
04/07/2020 05:13 AM 44.4°F 44.4°F / 44.8°F 44.4°F / 49.5°F 29.87 inHg 45% 0.00″
04/07/2020 04:13 AM 45.1°F 45.0°F / 45.1°F 45.0°F / 49.5°F 29.87 inHg 45% 0.00″
04/07/2020 03:13 AM 45.1°F 45.1°F / 45.1°F 45.1°F / 49.5°F 29.88 inHg 47% 0.00″
04/07/2020 02:13 AM 46.2°F 46.0°F / 46.2°F 46.0°F / 49.5°F 29.88 inHg 42% 0.00″
04/07/2020 01:13 AM 48.4°F 48.4°F / 48.7°F 48.4°F / 49.5°F 29.89 inHg 39% 0.00″
04/07/2020 12:13 AM 49.5°F 49.3°F / 49.5°F 49.3°F / 49.5°F 29.89 inHg 37% 0.00″
04/06/2020 11:12 PM 50.2°F 50.2°F / 50.5°F 47.5°F / 63.5°F 29.88 inHg 35% 0.00″
04/06/2020 10:12 PM 50.5°F 50.5°F / 50.5°F 47.5°F / 63.5°F 29.88 inHg 33% 0.00″
04/06/2020 09:12 PM 51.6°F 51.6°F / 52.0°F 47.5°F / 63.5°F 29.87 inHg 35% 0.00″
04/06/2020 08:12 PM 53.1°F 53.1°F / 53.4°F 47.5°F / 63.5°F 29.83 inHg 32% 0.00″
04/06/2020 07:12 PM 55.6°F 55.6°F / 55.9°F 47.5°F / 63.5°F 29.81 inHg 30% 0.00″
04/06/2020 06:12 PM 58.1°F 58.1°F / 58.6°F 47.5°F / 63.5°F 29.79 inHg 29% 0.00″
04/06/2020 05:12 PM 60.6°F 60.4°F / 60.6°F 47.5°F / 63.5°F 29.78 inHg 30% 0.00″
04/06/2020 04:12 PM 61.3°F 61.2°F / 61.3°F 47.5°F / 63.5°F 29.77 inHg 29% 0.00″
04/06/2020 03:12 PM 62.4°F 62.2°F / 62.8°F 47.5°F / 63.5°F 29.78 inHg 28% 0.00″
04/06/2020 02:12 PM 63.3°F 63.0°F / 63.5°F 47.5°F / 63.5°F 29.79 inHg 27% 0.00″
04/06/2020 01:12 PM 61.2°F 60.4°F / 61.2°F 47.5°F / 61.2°F 29.81 inHg 35% 0.00″
04/06/2020 12:12 PM 60.4°F 60.1°F / 60.4°F 47.5°F / 60.4°F 29.82 inHg 38% 0.00″
04/06/2020 11:12 AM 57.7°F 57.6°F / 57.7°F 47.5°F / 57.7°F 29.83 inHg 46% 0.00″
04/06/2020 10:12 AM 55.0°F 54.7°F / 55.0°F 47.5°F / 55.0°F 29.83 inHg 47% 0.00″
04/06/2020 09:12 AM 52.7°F 52.2°F / 52.7°F 47.5°F / 52.7°F 29.82 inHg 46% 0.00″
04/06/2020 08:11 AM 47.7°F 47.5°F / 47.7°F 47.5°F / 51.1°F 29.82 inHg 54% 0.00″
04/06/2020 07:11 AM 47.8°F 47.8°F / 48.6°F 47.8°F / 51.1°F 29.80 inHg 50% 0.00″
04/06/2020 06:11 AM 50.4°F 50.4°F / 50.9°F 47.8°F / 51.1°F 29.79 inHg 46% 0.00″
04/06/2020 05:11 AM 50.4°F 50.4°F / 50.4°F 47.8°F / 50.5°F 29.78 inHg 40% 0.00″
04/06/2020 04:10 AM 49.6°F 49.5°F / 49.6°F 47.8°F / 49.6°F 29.78 inHg 38% 0.00″
04/06/2020 03:10 AM 48.4°F 48.0°F / 48.4°F 47.8°F / 49.1°F 29.78 inHg 39% 0.00″
04/06/2020 02:10 AM 48.9°F 48.9°F / 49.1°F 48.0°F / 49.1°F 29.79 inHg 36% 0.00″
04/06/2020 01:10 AM 48.6°F 48.6°F / 48.6°F 48.0°F / 49.1°F 29.80 inHg 38% 0.00″
04/06/2020 12:10 AM 48.7°F 48.7°F / 49.1°F 48.7°F / 49.1°F 29.80 inHg 39% 0.00″
04/05/2020 11:09 PM 50.9°F 50.9°F / 51.3°F 41.4°F / 64.8°F 29.81 inHg 33% 0.00″
04/05/2020 10:09 PM 51.3°F 50.7°F / 51.3°F 41.4°F / 64.8°F 29.80 inHg 29% 0.00″
04/05/2020 09:09 PM 52.0°F 52.0°F / 52.3°F 41.4°F / 64.8°F 29.78 inHg 26% 0.00″
04/05/2020 08:09 PM 54.5°F 54.5°F / 54.9°F 41.4°F / 64.8°F 29.75 inHg 23% 0.00″
04/05/2020 07:09 PM 59.5°F 59.5°F / 60.1°F 41.4°F / 64.8°F 29.73 inHg 22% 0.00″
04/05/2020 06:08 PM 62.1°F 62.1°F / 62.2°F 41.4°F / 64.8°F 29.71 inHg 20% 0.00″
04/05/2020 05:08 PM 64.2°F 64.2°F / 64.6°F 41.4°F / 64.8°F 29.71 inHg 22% 0.00″
04/05/2020 04:08 PM 64.4°F 64.4°F / 64.6°F 41.4°F / 64.6°F 29.71 inHg 22% 0.00″
04/05/2020 03:08 PM 63.3°F 63.1°F / 63.3°F 41.4°F / 63.9°F 29.73 inHg 23% 0.00″
04/05/2020 02:08 PM 62.8°F 62.6°F / 62.8°F 41.4°F / 62.8°F 29.76 inHg 27% 0.00″
04/05/2020 01:08 PM 61.9°F 61.5°F / 61.9°F 41.4°F / 61.9°F 29.78 inHg 25% 0.00″
04/05/2020 12:08 PM 60.1°F 60.1°F / 60.4°F 41.4°F / 60.4°F 29.80 inHg 29% 0.00″
04/05/2020 11:08 AM 57.0°F 56.8°F / 57.0°F 41.4°F / 57.0°F 29.81 inHg 36% 0.00″
04/05/2020 09:08 AM 46.4°F 45.9°F / 46.4°F 41.4°F / 47.3°F 29.80 inHg 43% 0.00″
04/05/2020 08:08 AM 44.1°F 43.3°F / 44.1°F 41.4°F / 47.3°F 29.78 inHg 46% 0.00″
04/05/2020 07:08 AM 41.5°F 41.4°F / 41.5°F 41.4°F / 47.3°F 29.76 inHg 45% 0.00″
04/05/2020 06:08 AM 43.0°F 43.0°F / 43.0°F 42.6°F / 47.3°F 29.75 inHg 45% 0.00″
04/05/2020 05:08 AM 42.6°F 42.6°F / 42.8°F 42.6°F / 47.3°F 29.74 inHg 46% 0.00″
04/05/2020 04:08 AM 43.0°F 43.0°F / 43.2°F 43.0°F / 47.3°F 29.74 inHg 48% 0.00″
04/05/2020 03:08 AM 44.1°F 44.1°F / 44.1°F 44.1°F / 47.3°F 29.74 inHg 44% 0.00″
04/05/2020 02:07 AM 45.7°F 45.7°F / 45.9°F 45.7°F / 47.3°F 29.75 inHg 38% 0.00″
04/05/2020 01:07 AM 45.9°F 45.9°F / 45.9°F 45.9°F / 47.3°F 29.73 inHg 38% 0.00″
04/05/2020 12:07 AM 46.9°F 46.9°F / 47.3°F 46.9°F / 47.3°F 29.74 inHg 35% 0.00″
04/04/2020 11:07 PM 48.7°F 48.7°F / 48.7°F 43.3°F / 64.2°F 29.74 inHg 33% 0.00″
04/04/2020 10:07 PM 49.6°F 49.6°F / 49.8°F 43.3°F / 64.2°F 29.73 inHg 33% 0.00″
04/04/2020 09:07 PM 51.1°F 51.1°F / 51.3°F 43.3°F / 64.2°F 29.72 inHg 29% 0.00″
04/04/2020 08:07 PM 55.0°F 55.0°F / 55.6°F 43.3°F / 64.2°F 29.70 inHg 25% 0.00″
04/04/2020 07:07 PM 59.7°F 59.7°F / 60.4°F 43.3°F / 64.2°F 29.69 inHg 22% 0.00″
04/04/2020 06:07 PM 63.1°F 63.1°F / 63.3°F 43.3°F / 64.2°F 29.68 inHg 20% 0.00″
04/04/2020 05:07 PM 64.0°F 63.7°F / 64.0°F 43.3°F / 64.2°F 29.68 inHg 22% 0.00″
04/04/2020 04:07 PM 64.0°F 64.0°F / 64.2°F 43.3°F / 64.2°F 29.68 inHg 22% 0.00″
04/04/2020 03:07 PM 63.3°F 63.0°F / 63.3°F 43.3°F / 63.3°F 29.70 inHg 23% 0.00″
04/04/2020 02:07 PM 61.2°F 61.0°F / 61.5°F 43.3°F / 61.5°F 29.73 inHg 27% 0.00″
04/04/2020 01:06 PM 59.7°F 59.5°F / 59.7°F 43.3°F / 59.7°F 29.76 inHg 27% 0.00″
04/04/2020 12:06 PM 57.9°F 57.9°F / 58.1°F 43.3°F / 58.1°F 29.77 inHg 26% 0.00″
04/04/2020 11:06 AM 56.7°F 56.1°F / 56.7°F 43.3°F / 56.7°F 29.78 inHg 33% 0.00″
04/04/2020 10:06 AM 53.6°F 53.2°F / 53.6°F 43.3°F / 53.6°F 29.78 inHg 38% 0.00″
04/04/2020 09:06 AM 48.9°F 47.8°F / 48.9°F 43.3°F / 48.9°F 29.77 inHg 47% 0.00″
04/04/2020 08:06 AM 44.2°F 44.1°F / 44.2°F 43.3°F / 48.0°F 29.76 inHg 53% 0.00″
04/04/2020 07:06 AM 43.3°F 43.3°F / 43.3°F 43.3°F / 48.0°F 29.74 inHg 51% 0.00″
04/04/2020 06:06 AM 44.2°F 44.2°F / 44.2°F 44.1°F / 48.0°F 29.74 inHg 49% 0.00″
04/04/2020 05:05 AM 44.4°F 44.4°F / 44.4°F 44.4°F / 48.0°F 29.74 inHg 47% 0.00″
04/04/2020 04:05 AM 45.7°F 45.5°F / 45.7°F 45.3°F / 48.0°F 29.73 inHg 45% 0.00″
04/04/2020 03:05 AM 46.8°F 46.8°F / 46.9°F 46.8°F / 48.0°F 29.73 inHg 42% 0.00″
04/04/2020 02:05 AM 47.8°F 47.7°F / 47.8°F 47.5°F / 48.0°F 29.74 inHg 40% 0.00″
04/04/2020 01:05 AM 47.7°F 47.7°F / 47.8°F 47.5°F / 48.0°F 29.75 inHg 40% 0.00″
04/04/2020 12:05 AM 47.5°F 47.5°F / 47.7°F 47.5°F / 47.7°F 29.74 inHg 39% 0.00″
04/03/2020 11:04 PM 48.6°F 48.6°F / 48.7°F 43.3°F / 62.2°F 29.73 inHg 36% 0.00″
04/03/2020 10:04 PM 51.3°F 51.3°F / 51.4°F 43.3°F / 62.2°F 29.73 inHg 31% 0.00″
04/03/2020 09:04 PM 53.2°F 53.2°F / 53.2°F 43.3°F / 62.2°F 29.72 inHg 29% 0.00″
04/03/2020 08:04 PM 54.0°F 54.0°F / 54.0°F 43.3°F / 62.2°F 29.69 inHg 32% 0.00″
04/03/2020 07:04 PM 55.6°F 55.6°F / 55.8°F 43.3°F / 62.2°F 29.68 inHg 32% 0.00″
04/03/2020 06:04 PM 58.6°F 58.6°F / 58.8°F 43.3°F / 62.2°F 29.66 inHg 28% 0.00″
04/03/2020 05:04 PM 60.8°F 60.8°F / 61.0°F 43.3°F / 62.2°F 29.65 inHg 28% 0.00″
04/03/2020 04:04 PM 60.4°F 60.3°F / 60.4°F 43.3°F / 62.2°F 29.68 inHg 27% 0.00″
04/03/2020 03:03 PM 61.3°F 61.3°F / 61.5°F 43.3°F / 62.2°F 29.70 inHg 26% 0.00″
04/03/2020 02:03 PM 60.4°F 60.4°F / 60.6°F 43.3°F / 61.7°F 29.72 inHg 27% 0.00″
04/03/2020 01:03 PM 61.3°F 61.3°F / 61.3°F 43.3°F / 61.3°F 29.74 inHg 26% 0.00″
04/03/2020 12:03 PM 59.7°F 59.5°F / 59.7°F 43.3°F / 59.7°F 29.78 inHg 27% 0.00″
04/03/2020 11:03 AM 58.5°F 58.3°F / 58.5°F 43.3°F / 58.5°F 29.80 inHg 28% 0.00″
04/03/2020 10:03 AM 55.2°F 55.0°F / 55.2°F 43.3°F / 55.2°F 29.79 inHg 31% 0.00″
04/03/2020 09:03 AM 47.7°F 47.1°F / 47.7°F 43.3°F / 54.1°F 29.77 inHg 43% 0.00″
04/03/2020 08:03 AM 43.7°F 43.7°F / 43.9°F 43.3°F / 54.1°F 29.75 inHg 48% 0.00″
04/03/2020 07:03 AM 44.2°F 44.2°F / 44.2°F 44.2°F / 54.1°F 29.73 inHg 43% 0.00″
04/03/2020 06:02 AM 47.5°F 47.5°F / 47.7°F 46.8°F / 54.1°F 29.72 inHg 39% 0.00″
04/03/2020 05:01 AM 47.3°F 47.3°F / 47.3°F 47.3°F / 54.1°F 29.71 inHg 39% 0.00″
04/03/2020 04:01 AM 48.6°F 48.6°F / 48.6°F 48.6°F / 54.1°F 29.70 inHg 36% 0.00″
04/03/2020 03:01 AM 49.1°F 49.1°F / 49.3°F 49.1°F / 54.1°F 29.70 inHg 35% 0.00″
04/03/2020 02:01 AM 51.6°F 51.6°F / 51.6°F 51.6°F / 54.1°F 29.71 inHg 32% 0.00″
04/03/2020 01:01 AM 53.2°F 53.2°F / 53.2°F 53.2°F / 54.1°F 29.70 inHg 29% 0.00″
04/03/2020 12:01 AM 54.1°F 54.1°F / 54.1°F 54.1°F / 54.1°F 29.70 inHg 27% 0.00″
04/02/2020 11:01 PM 54.5°F 54.3°F / 54.5°F 47.7°F / 66.0°F 29.70 inHg 27% 0.00″
04/02/2020 10:01 PM 54.9°F 54.7°F / 54.9°F 47.7°F / 66.0°F 29.68 inHg 27% 0.00″
04/02/2020 08:00 PM 56.5°F 56.5°F / 56.7°F 47.7°F / 66.0°F 29.64 inHg 27% 0.00″
04/02/2020 07:00 PM 61.0°F 61.0°F / 61.0°F 47.7°F / 66.0°F 29.64 inHg 23% 0.00″
04/02/2020 05:00 PM 64.9°F 64.9°F / 64.9°F 47.7°F / 66.0°F 29.62 inHg 21% 0.00″
04/02/2020 04:00 PM 65.5°F 65.5°F / 65.5°F 47.7°F / 66.0°F 29.62 inHg 21% 0.00″
04/02/2020 03:00 PM 64.6°F 64.6°F / 64.6°F 47.7°F / 64.9°F 29.63 inHg 22% 0.00″
04/02/2020 02:00 PM 63.5°F 63.5°F / 63.5°F 47.7°F / 63.7°F 29.65 inHg 23% 0.00″
04/02/2020 01:00 PM 61.9°F 61.9°F / 61.9°F 47.7°F / 62.1°F 29.66 inHg 26% 0.00″
04/02/2020 12:00 PM 59.7°F 59.7°F / 59.7°F 47.7°F / 59.7°F 29.68 inHg 29% 0.00″
04/02/2020 11:00 AM 57.6°F 57.6°F / 57.6°F 47.7°F / 57.6°F 29.69 inHg 34% 0.00″
04/02/2020 08:00 AM 48.0°F 48.0°F / 48.0°F 47.7°F / 55.0°F 29.67 inHg 40% 0.00″
04/02/2020 07:00 AM 49.3°F 49.3°F / 49.3°F 49.3°F / 55.0°F 29.66 inHg 38% 0.00″
04/02/2020 05:00 AM 52.0°F 52.0°F / 52.0°F 51.4°F / 55.0°F 29.63 inHg 34% 0.00″
04/02/2020 02:59 AM 52.9°F 52.9°F / 54.1°F 52.9°F / 55.0°F 29.63 inHg 33% 0.00″
04/02/2020 01:59 AM 54.1°F 54.1°F / 55.0°F 53.8°F / 55.0°F 29.64 inHg 31% 0.00″
04/02/2020 12:59 AM 54.3°F 53.8°F / 54.3°F 53.8°F / 54.3°F 29.65 inHg 33% 0.00″
04/01/2020 11:59 PM 54.3°F 54.3°F / 57.2°F 47.7°F / 66.2°F 29.65 inHg 34% 0.00″
04/01/2020 10:59 PM 57.2°F 57.0°F / 57.9°F 47.7°F / 66.2°F 29.65 inHg 30% 0.00″
04/01/2020 09:59 PM 57.9°F 57.9°F / 58.6°F 47.7°F / 66.2°F 29.65 inHg 28% 0.00″
04/01/2020 08:59 PM 58.6°F 58.6°F / 59.4°F 47.7°F / 66.2°F 29.65 inHg 29% 0.00″
04/01/2020 07:59 PM 59.4°F 59.4°F / 62.2°F 47.7°F / 66.2°F 29.62 inHg 29% 0.00″
04/01/2020 06:59 PM 62.4°F 62.4°F / 64.8°F 47.7°F / 66.2°F 29.60 inHg 27% 0.00″
04/01/2020 05:59 PM 64.2°F 62.2°F / 64.2°F 47.7°F / 66.2°F 29.60 inHg 26% 0.00″
04/01/2020 04:59 PM 62.6°F 61.3°F / 63.5°F 47.7°F / 66.2°F 29.59 inHg 26% 0.00″
04/01/2020 03:59 PM 61.3°F 61.3°F / 62.4°F 47.7°F / 66.2°F 29.60 inHg 25% 0.00″
04/01/2020 02:59 PM 62.4°F 62.2°F / 65.1°F 47.7°F / 66.2°F 29.61 inHg 24% 0.00″
04/01/2020 01:59 PM 63.3°F 63.1°F / 66.2°F 47.7°F / 66.2°F 29.63 inHg 23% 0.00″
04/01/2020 12:59 PM 65.7°F 63.3°F / 65.7°F 47.7°F / 65.7°F 29.67 inHg 23% 0.00″
04/01/2020 11:59 AM 63.7°F 60.1°F / 63.7°F 47.7°F / 63.7°F 29.69 inHg 23% 0.00″
04/01/2020 10:59 AM 61.0°F 58.8°F / 62.4°F 47.7°F / 62.4°F 29.71 inHg 26% 0.00″
04/01/2020 09:59 AM 58.6°F 56.5°F / 58.6°F 47.7°F / 58.6°F 29.71 inHg 27% 0.00″
04/01/2020 08:58 AM 56.5°F 53.2°F / 56.5°F 47.7°F / 56.5°F 29.73 inHg 27% 0.00″
04/01/2020 07:58 AM 53.2°F 52.5°F / 53.2°F 47.7°F / 53.2°F 29.75 inHg 30% 0.00″
04/01/2020 06:58 AM 52.9°F 52.9°F / 53.2°F 47.7°F / 53.2°F 29.75 inHg 27% 0.00″
04/01/2020 05:58 AM 53.2°F 52.2°F / 53.2°F 47.7°F / 53.2°F 29.75 inHg 26% 0.00″
04/01/2020 04:58 AM 52.7°F 51.3°F / 52.9°F 47.7°F / 52.9°F 29.76 inHg 27% 0.00″
04/01/2020 03:58 AM 51.3°F 50.2°F / 51.3°F 47.7°F / 51.3°F 29.78 inHg 30% 0.00″
04/01/2020 02:58 AM 50.2°F 48.9°F / 50.5°F 47.7°F / 50.5°F 29.81 inHg 29% 0.00″
04/01/2020 01:58 AM 48.9°F 47.8°F / 48.9°F 47.7°F / 48.9°F 29.84 inHg 32% 0.00″
04/01/2020 12:58 AM 47.8°F 47.7°F / 47.8°F 47.7°F / 47.8°F 29.85 inHg 31% 0.00″
03/31/2020 11:58 PM 47.8°F 47.8°F / 48.7°F 34.7°F / 64.8°F 29.87 inHg 31% 0.00″
03/31/2020 10:58 PM 48.6°F 47.5°F / 48.6°F 34.7°F / 64.8°F 29.89 inHg 27% 0.00″
03/31/2020 09:58 PM 48.0°F 48.0°F / 50.0°F 34.7°F / 64.8°F 29.91 inHg 30% 0.00″
03/31/2020 08:57 PM 49.8°F 49.8°F / 51.1°F 34.7°F / 64.8°F 29.92 inHg 27% 0.00″
03/31/2020 07:57 PM 50.9°F 50.9°F / 54.0°F 34.7°F / 64.8°F 29.92 inHg 28% 0.00″
03/31/2020 06:57 PM 54.1°F 54.1°F / 60.6°F 34.7°F / 64.8°F 29.92 inHg 28% 0.00″
03/31/2020 05:57 PM 61.0°F 61.0°F / 63.9°F 34.7°F / 64.8°F 29.93 inHg 19% 0.00″
03/31/2020 04:57 PM 63.7°F 63.1°F / 64.8°F 34.7°F / 64.8°F 29.94 inHg 19% 0.00″
03/31/2020 03:57 PM 63.9°F 61.9°F / 63.9°F 34.7°F / 63.9°F 29.96 inHg 19% 0.00″
03/31/2020 02:57 PM 61.5°F 61.3°F / 62.1°F 34.7°F / 62.2°F 29.98 inHg 22% 0.00″
03/31/2020 01:57 PM 61.5°F 61.2°F / 62.2°F 34.7°F / 62.2°F 30.01 inHg 19% 0.00″
03/31/2020 12:57 PM 61.2°F 59.5°F / 61.3°F 34.7°F / 61.3°F 30.05 inHg 20% 0.00″
03/31/2020 11:57 AM 59.4°F 57.0°F / 59.4°F 34.7°F / 59.4°F 30.08 inHg 24% 0.00″
03/31/2020 10:57 AM 56.8°F 52.0°F / 56.8°F 34.7°F / 56.8°F 30.09 inHg 26% 0.00″
03/31/2020 09:57 AM 51.4°F 42.4°F / 51.4°F 34.7°F / 51.4°F 30.11 inHg 32% 0.00″
03/31/2020 08:56 AM 42.1°F 36.3°F / 42.1°F 34.7°F / 42.1°F 30.10 inHg 45% 0.00″
03/31/2020 07:56 AM 36.1°F 34.7°F / 36.1°F 34.7°F / 39.7°F 30.10 inHg 50% 0.00″
03/31/2020 06:56 AM 34.9°F 34.7°F / 35.2°F 34.7°F / 39.7°F 30.08 inHg 51% 0.00″
03/31/2020 05:56 AM 35.2°F 35.1°F / 35.2°F 35.1°F / 39.7°F 30.06 inHg 49% 0.00″
03/31/2020 04:56 AM 35.6°F 35.6°F / 36.1°F 35.6°F / 39.7°F 30.07 inHg 51% 0.00″
03/31/2020 03:56 AM 36.3°F 36.0°F / 37.2°F 36.0°F / 39.7°F 30.05 inHg 47% 0.00″
03/31/2020 02:56 AM 37.2°F 37.2°F / 39.0°F 37.2°F / 39.7°F 30.05 inHg 44% 0.00″
03/31/2020 01:55 AM 39.0°F 39.0°F / 39.7°F 39.0°F / 39.7°F 30.05 inHg 41% 0.00″
03/31/2020 12:55 AM 39.0°F 39.0°F / 39.7°F 39.0°F / 39.7°F 30.05 inHg 39% 0.00″
03/30/2020 11:55 PM 39.9°F 39.9°F / 41.5°F 39.9°F / 56.8°F 30.05 inHg 39% 0.00″
03/30/2020 10:55 PM 41.5°F 41.2°F / 42.4°F 41.0°F / 56.8°F 30.03 inHg 36% 0.00″
03/30/2020 09:55 PM 41.0°F 41.0°F / 43.3°F 41.0°F / 56.8°F 30.04 inHg 37% 0.00″
03/30/2020 08:55 PM 43.3°F 43.3°F / 46.2°F 41.0°F / 56.8°F 30.01 inHg 34% 0.00″
03/30/2020 07:55 PM 46.9°F 46.9°F / 53.2°F 41.0°F / 56.8°F 29.98 inHg 30% 0.00″
03/30/2020 06:55 PM 53.6°F 53.6°F / 55.6°F 41.0°F / 56.8°F 29.96 inHg 22% 0.00″
03/30/2020 05:55 PM 55.9°F 55.9°F / 56.8°F 41.0°F / 56.8°F 29.92 inHg 22% 0.00″
03/30/2020 04:55 PM 56.5°F 56.1°F / 56.7°F 41.0°F / 56.7°F 29.90 inHg 22% 0.00″
03/30/2020 03:55 PM 56.3°F 55.0°F / 56.3°F 41.0°F / 56.3°F 29.89 inHg 22% 0.00″
03/30/2020 02:55 PM 55.6°F 54.0°F / 55.6°F 41.0°F / 55.6°F 29.90 inHg 24% 0.00″
03/30/2020 01:55 PM 54.1°F 53.2°F / 54.3°F 41.0°F / 54.3°F 29.91 inHg 25% 0.00″
03/30/2020 12:55 PM 54.0°F 52.2°F / 54.0°F 41.0°F / 54.0°F 29.91 inHg 26% 0.00″
03/30/2020 11:54 AM 51.8°F 50.2°F / 51.8°F 41.0°F / 51.8°F 29.93 inHg 29% 0.00″
03/30/2020 10:54 AM 50.5°F 48.6°F / 50.9°F 41.0°F / 50.9°F 29.93 inHg 29% 0.00″
03/30/2020 09:54 AM 48.4°F 46.2°F / 48.4°F 41.0°F / 48.4°F 29.91 inHg 32% 0.00″
03/30/2020 08:54 AM 45.9°F 41.5°F / 45.9°F 41.0°F / 46.2°F 29.90 inHg 35% 0.00″
03/30/2020 07:54 AM 41.4°F 41.0°F / 41.5°F 41.0°F / 46.2°F 29.89 inHg 40% 0.00″
03/30/2020 06:54 AM 41.7°F 41.7°F / 45.3°F 41.7°F / 46.2°F 29.87 inHg 39% 0.00″
03/30/2020 05:54 AM 45.7°F 44.8°F / 46.0°F 42.8°F / 46.2°F 29.86 inHg 32% 0.00″
03/30/2020 04:54 AM 44.4°F 44.4°F / 45.0°F 42.8°F / 46.2°F 29.85 inHg 37% 0.00″
03/30/2020 03:54 AM 45.0°F 42.8°F / 45.0°F 42.8°F / 46.2°F 29.84 inHg 34% 0.00″
03/30/2020 02:54 AM 43.0°F 42.8°F / 43.3°F 42.8°F / 46.2°F 29.87 inHg 40% 0.00″
03/30/2020 01:54 AM 43.5°F 43.5°F / 44.4°F 43.5°F / 46.2°F 29.88 inHg 38% 0.00″
03/30/2020 12:54 AM 44.8°F 44.8°F / 46.2°F 44.8°F / 46.2°F 29.91 inHg 37% 0.00″
03/29/2020 11:53 PM 46.4°F 46.4°F / 46.8°F 33.1°F / 58.6°F 29.91 inHg 35% 0.00″
03/29/2020 10:53 PM 46.9°F 46.9°F / 48.7°F 33.1°F / 58.6°F 29.93 inHg 32% 0.00″
03/29/2020 09:53 PM 49.3°F 49.3°F / 50.4°F 33.1°F / 58.6°F 29.95 inHg 29% 0.00″
03/29/2020 08:53 PM 50.4°F 49.8°F / 50.4°F 33.1°F / 58.6°F 29.94 inHg 24% 0.00″
03/29/2020 07:53 PM 49.8°F 49.8°F / 51.4°F 33.1°F / 58.6°F 29.94 inHg 25% 0.00″
03/29/2020 06:53 PM 51.6°F 51.6°F / 53.2°F 33.1°F / 58.6°F 29.94 inHg 26% 0.00″
03/29/2020 05:53 PM 53.6°F 53.6°F / 54.9°F 33.1°F / 58.6°F 29.94 inHg 23% 0.00″
03/29/2020 04:53 PM 55.0°F 55.0°F / 56.5°F 33.1°F / 58.6°F 29.94 inHg 21% 0.00″
03/29/2020 03:53 PM 56.7°F 56.5°F / 56.8°F 33.1°F / 58.6°F 29.95 inHg 21% 0.00″
03/29/2020 02:53 PM 56.3°F 55.8°F / 57.0°F 33.1°F / 58.6°F 29.97 inHg 24% 0.00″
03/29/2020 01:52 PM 57.0°F 57.0°F / 58.6°F 33.1°F / 58.6°F 30.01 inHg 24% 0.00″
03/29/2020 12:52 PM 57.6°F 54.3°F / 57.6°F 33.1°F / 57.6°F 30.04 inHg 25% 0.00″
03/29/2020 11:52 AM 54.3°F 52.7°F / 54.3°F 33.1°F / 54.3°F 30.08 inHg 28% 0.00″
03/29/2020 10:52 AM 52.2°F 45.9°F / 52.2°F 33.1°F / 52.2°F 30.10 inHg 29% 0.00″
03/29/2020 09:52 AM 45.1°F 40.5°F / 45.1°F 33.1°F / 45.1°F 30.12 inHg 32% 0.00″
03/29/2020 08:52 AM 40.1°F 37.2°F / 40.1°F 33.1°F / 40.1°F 30.11 inHg 51% 0.00″
03/29/2020 07:52 AM 37.0°F 36.0°F / 37.0°F 33.1°F / 37.0°F 30.12 inHg 45% 0.00″
03/29/2020 06:52 AM 36.0°F 35.2°F / 36.0°F 33.1°F / 36.3°F 30.10 inHg 44% 0.00″
03/29/2020 05:52 AM 35.6°F 35.6°F / 36.3°F 33.1°F / 36.3°F 30.09 inHg 42% 0.00″
03/29/2020 04:51 AM 36.1°F 34.5°F / 36.1°F 33.1°F / 36.3°F 30.08 inHg 44% 0.00″
03/29/2020 03:51 AM 34.5°F 34.5°F / 36.3°F 33.1°F / 36.3°F 30.08 inHg 49% 0.00″
03/29/2020 02:51 AM 35.6°F 33.1°F / 35.6°F 33.1°F / 35.6°F 30.09 inHg 44% 0.00″
03/29/2020 01:51 AM 33.1°F 33.1°F / 35.1°F 33.1°F / 35.1°F 30.11 inHg 51% 0.00″
03/29/2020 12:51 AM 34.9°F 34.9°F / 35.1°F 34.9°F / 35.1°F 30.12 inHg 48% 0.00″
03/28/2020 11:51 PM 34.9°F 34.7°F / 36.7°F 24.4°F / 49.5°F 30.14 inHg 48% 0.00″
03/28/2020 10:50 PM 36.1°F 36.1°F / 36.7°F 24.4°F / 49.5°F 30.12 inHg 41% 0.00″
03/28/2020 09:50 PM 36.9°F 36.9°F / 37.2°F 24.4°F / 49.5°F 30.12 inHg 41% 0.00″
03/28/2020 08:50 PM 37.4°F 37.4°F / 38.7°F 24.4°F / 49.5°F 30.09 inHg 39% 0.00″
03/28/2020 07:49 PM 39.7°F 39.7°F / 46.4°F 24.4°F / 49.5°F 30.07 inHg 38% 0.00″
03/28/2020 06:49 PM 46.8°F 46.8°F / 48.2°F 24.4°F / 49.5°F 30.06 inHg 27% 0.00″
03/28/2020 05:49 PM 48.4°F 48.4°F / 49.5°F 24.4°F / 49.5°F 30.05 inHg 26% 0.00″
03/28/2020 04:49 PM 48.6°F 47.8°F / 48.7°F 24.4°F / 48.7°F 30.04 inHg 27% 0.00″
03/28/2020 03:49 PM 48.4°F 46.2°F / 48.4°F 24.4°F / 48.4°F 30.03 inHg 28% 0.00″
03/28/2020 02:49 PM 46.4°F 45.0°F / 46.4°F 24.4°F / 46.4°F 30.03 inHg 34% 0.00″
03/28/2020 01:49 PM 44.1°F 42.6°F / 44.1°F 24.4°F / 44.1°F 30.03 inHg 34% 0.00″
03/28/2020 12:49 PM 42.3°F 39.6°F / 42.3°F 24.4°F / 42.3°F 30.02 inHg 39% 0.00″
03/28/2020 11:49 AM 38.8°F 36.1°F / 38.8°F 24.4°F / 38.8°F 30.03 inHg 41% 0.00″
03/28/2020 10:49 AM 36.0°F 33.1°F / 36.0°F 24.4°F / 36.0°F 30.03 inHg 41% 0.00″
03/28/2020 09:49 AM 32.2°F 28.2°F / 32.2°F 24.4°F / 34.5°F 30.02 inHg 54% 0.00″
03/28/2020 08:49 AM 27.0°F 25.0°F / 27.0°F 24.4°F / 34.5°F 30.00 inHg 68% 0.00″
03/28/2020 07:49 AM 25.0°F 24.4°F / 25.0°F 24.4°F / 34.5°F 29.97 inHg 70% 0.00″
03/28/2020 06:49 AM 25.2°F 25.2°F / 25.3°F 25.2°F / 34.5°F 29.94 inHg 68% 0.00″
03/28/2020 05:48 AM 25.5°F 25.5°F / 26.2°F 25.5°F / 34.5°F 29.90 inHg 66% 0.00″
03/28/2020 04:48 AM 26.2°F 26.2°F / 26.8°F 26.2°F / 34.5°F 29.86 inHg 63% 0.00″
03/28/2020 03:48 AM 27.1°F 27.0°F / 28.6°F 27.0°F / 34.5°F 29.84 inHg 61% 0.00″
03/28/2020 02:47 AM 28.8°F 28.8°F / 29.7°F 28.8°F / 34.5°F 29.83 inHg 55% 0.00″
03/28/2020 01:47 AM 29.8°F 29.8°F / 30.7°F 29.8°F / 34.5°F 29.80 inHg 52% 0.00″
03/28/2020 12:47 AM 31.3°F 31.3°F / 34.5°F 31.3°F / 34.5°F 29.79 inHg 49% 0.00″
03/27/2020 11:47 PM 35.4°F 35.4°F / 36.1°F 35.4°F / 58.3°F 29.78 inHg 41% 0.15″
03/27/2020 10:47 PM 36.1°F 36.1°F / 37.6°F 36.1°F / 58.3°F 29.75 inHg 45% 0.15″
03/27/2020 09:47 PM 37.9°F 37.9°F / 39.4°F 37.9°F / 58.3°F 29.72 inHg 51% 0.15″
03/27/2020 08:47 PM 39.6°F 39.6°F / 41.7°F 39.6°F / 58.3°F 29.67 inHg 51% 0.15″
03/27/2020 07:47 PM 43.2°F 43.2°F / 49.5°F 40.8°F / 58.3°F 29.62 inHg 46% 0.15″
03/27/2020 06:47 PM 50.7°F 50.7°F / 54.0°F 40.8°F / 58.3°F 29.56 inHg 34% 0.15″
03/27/2020 05:47 PM 54.7°F 54.7°F / 56.7°F 40.8°F / 58.3°F 29.52 inHg 33% 0.15″
03/27/2020 04:47 PM 56.5°F 56.3°F / 58.3°F 40.8°F / 58.3°F 29.51 inHg 37% 0.15″
03/27/2020 03:47 PM 57.7°F 55.9°F / 57.9°F 40.8°F / 57.9°F 29.51 inHg 28% 0.15″
03/27/2020 02:47 PM 55.6°F 52.5°F / 55.6°F 40.8°F / 55.6°F 29.51 inHg 44% 0.15″
03/27/2020 01:47 PM 52.0°F 49.3°F / 52.0°F 40.8°F / 52.0°F 29.52 inHg 55% 0.15″
03/27/2020 12:47 PM 48.7°F 48.6°F / 49.3°F 40.8°F / 49.3°F 29.55 inHg 64% 0.15″
03/27/2020 11:47 AM 48.7°F 46.8°F / 48.7°F 40.8°F / 48.7°F 29.59 inHg 65% 0.15″
03/27/2020 10:47 AM 46.6°F 45.7°F / 46.6°F 40.8°F / 48.7°F 29.60 inHg 69% 0.15″
03/27/2020 09:47 AM 45.1°F 43.9°F / 45.1°F 40.8°F / 48.7°F 29.61 inHg 73% 0.15″
03/27/2020 08:47 AM 43.3°F 40.8°F / 43.3°F 40.8°F / 48.7°F 29.60 inHg 82% 0.15″
03/27/2020 07:47 AM 41.2°F 41.2°F / 41.4°F 41.2°F / 48.7°F 29.64 inHg 88% 0.13″
03/27/2020 06:47 AM 41.7°F 41.7°F / 43.0°F 41.7°F / 48.7°F 29.62 inHg 86% 0.08″
03/27/2020 05:46 AM 43.2°F 43.2°F / 45.9°F 43.2°F / 48.7°F 29.63 inHg 81% 0.03″
03/27/2020 04:46 AM 46.6°F 46.6°F / 47.1°F 46.6°F / 48.7°F 29.62 inHg 67% 0.00″
03/27/2020 03:46 AM 47.5°F 47.5°F / 47.8°F 47.3°F / 48.7°F 29.61 inHg 62% 0.00″
03/27/2020 02:46 AM 47.7°F 47.5°F / 47.7°F 47.3°F / 48.7°F 29.63 inHg 60% 0.00″
03/27/2020 01:46 AM 47.3°F 47.3°F / 47.5°F 47.3°F / 48.7°F 29.65 inHg 59% 0.00″
03/27/2020 12:46 AM 47.7°F 47.7°F / 48.7°F 47.7°F / 48.7°F 29.65 inHg 57% 0.00″
03/26/2020 11:46 PM 49.6°F 49.6°F / 52.5°F 49.6°F / 65.5°F 29.64 inHg 55% 0.00″
03/26/2020 10:46 PM 53.1°F 53.1°F / 54.7°F 53.1°F / 65.5°F 29.64 inHg 47% 0.00″
03/26/2020 09:46 PM 55.0°F 55.0°F / 57.0°F 53.8°F / 65.5°F 29.63 inHg 45% 0.00″
03/26/2020 08:46 PM 57.7°F 57.7°F / 58.3°F 53.8°F / 65.5°F 29.60 inHg 44% 0.00″
03/26/2020 07:46 PM 58.5°F 58.5°F / 59.7°F 53.8°F / 65.5°F 29.59 inHg 43% 0.00″
03/26/2020 06:46 PM 60.1°F 60.1°F / 61.7°F 53.8°F / 65.5°F 29.58 inHg 41% 0.00″
03/26/2020 05:46 PM 62.2°F 61.0°F / 62.2°F 53.8°F / 65.5°F 29.58 inHg 39% 0.00″
03/26/2020 04:45 PM 61.0°F 61.0°F / 61.9°F 53.8°F / 65.5°F 29.59 inHg 40% 0.00″
03/26/2020 03:45 PM 62.1°F 61.9°F / 62.8°F 53.8°F / 65.5°F 29.59 inHg 39% 0.00″
03/26/2020 02:45 PM 63.0°F 63.0°F / 63.9°F 53.8°F / 65.5°F 29.61 inHg 38% 0.00″
03/26/2020 01:45 PM 63.7°F 63.7°F / 65.1°F 53.8°F / 65.5°F 29.63 inHg 38% 0.00″
03/26/2020 12:45 PM 64.9°F 62.8°F / 64.9°F 53.8°F / 64.9°F 29.65 inHg 34% 0.00″
03/26/2020 11:45 AM 63.0°F 62.2°F / 63.1°F 53.8°F / 63.7°F 29.68 inHg 35% 0.00″
03/26/2020 10:45 AM 63.1°F 62.1°F / 63.7°F 53.8°F / 63.7°F 29.68 inHg 37% 0.00″
03/26/2020 09:45 AM 61.7°F 59.2°F / 61.7°F 53.8°F / 61.7°F 29.68 inHg 39% 0.00″
03/26/2020 08:45 AM 57.9°F 55.6°F / 57.9°F 53.8°F / 57.9°F 29.67 inHg 40% 0.00″
03/26/2020 07:45 AM 55.6°F 54.9°F / 55.6°F 53.8°F / 55.6°F 29.66 inHg 40% 0.00″
03/26/2020 06:44 AM 55.0°F 54.3°F / 55.2°F 53.8°F / 55.2°F 29.66 inHg 36% 0.00″
03/26/2020 05:44 AM 53.8°F 53.8°F / 54.5°F 53.8°F / 54.9°F 29.67 inHg 37% 0.00″
03/26/2020 04:44 AM 54.1°F 54.0°F / 54.9°F 53.8°F / 54.9°F 29.68 inHg 36% 0.00″
03/26/2020 03:44 AM 54.1°F 53.8°F / 54.1°F 53.8°F / 54.9°F 29.70 inHg 39% 0.00″
03/26/2020 02:44 AM 54.0°F 53.8°F / 54.3°F 53.8°F / 54.9°F 29.72 inHg 41% 0.00″
03/26/2020 12:44 AM 54.0°F 54.0°F / 54.9°F 54.0°F / 54.9°F 29.76 inHg 38% 0.00″
03/25/2020 11:43 PM 54.3°F 54.3°F / 55.0°F 44.1°F / 70.0°F 29.78 inHg 37% 0.00″
03/25/2020 10:43 PM 54.5°F 54.1°F / 55.8°F 44.1°F / 70.0°F 29.78 inHg 38% 0.00″
03/25/2020 09:43 PM 55.9°F 55.9°F / 57.6°F 44.1°F / 70.0°F 29.79 inHg 35% 0.00″
03/25/2020 08:43 PM 59.2°F 59.2°F / 61.0°F 44.1°F / 70.0°F 29.78 inHg 33% 0.00″
03/25/2020 07:43 PM 61.5°F 61.5°F / 64.4°F 44.1°F / 70.0°F 29.77 inHg 28% 0.00″
03/25/2020 06:43 PM 66.0°F 66.0°F / 67.3°F 44.1°F / 70.0°F 29.77 inHg 25% 0.00″
03/25/2020 05:43 PM 67.8°F 67.8°F / 69.6°F 44.1°F / 70.0°F 29.76 inHg 21% 0.00″
03/25/2020 04:43 PM 69.4°F 69.4°F / 69.8°F 44.1°F / 70.0°F 29.77 inHg 19% 0.00″
03/25/2020 03:43 PM 69.8°F 68.5°F / 70.0°F 44.1°F / 70.0°F 29.80 inHg 18% 0.00″
03/25/2020 02:43 PM 68.2°F 67.6°F / 68.5°F 44.1°F / 68.5°F 29.83 inHg 15% 0.00″
03/25/2020 01:43 PM 67.3°F 65.7°F / 67.3°F 44.1°F / 67.3°F 29.87 inHg 18% 0.00″
03/25/2020 12:43 PM 65.5°F 64.2°F / 65.8°F 44.1°F / 65.8°F 29.90 inHg 15% 0.00″
03/25/2020 11:43 AM 64.0°F 62.8°F / 64.0°F 44.1°F / 64.0°F 29.91 inHg 15% 0.00″
03/25/2020 10:43 AM 62.1°F 58.3°F / 62.1°F 44.1°F / 62.1°F 29.92 inHg 13% 0.00″
03/25/2020 09:43 AM 56.3°F 49.3°F / 56.3°F 44.1°F / 56.3°F 29.92 inHg 19% 0.00″
03/25/2020 08:43 AM 46.8°F 45.9°F / 46.8°F 44.1°F / 48.0°F 29.92 inHg 31% 0.00″
03/25/2020 07:42 AM 45.5°F 44.2°F / 45.5°F 44.1°F / 48.0°F 29.91 inHg 29% 0.00″
03/25/2020 06:42 AM 44.2°F 44.1°F / 44.8°F 44.1°F / 48.0°F 29.91 inHg 37% 0.00″
03/25/2020 05:42 AM 44.6°F 44.4°F / 45.7°F 44.4°F / 48.0°F 29.91 inHg 35% 0.00″
03/25/2020 04:42 AM 46.2°F 45.9°F / 46.4°F 45.1°F / 48.0°F 29.91 inHg 37% 0.00″
03/25/2020 03:42 AM 46.6°F 46.4°F / 47.5°F 45.1°F / 48.0°F 29.93 inHg 34% 0.00″
03/25/2020 02:42 AM 48.0°F 45.9°F / 48.0°F 45.1°F / 48.0°F 29.95 inHg 34% 0.00″
03/25/2020 01:42 AM 45.7°F 45.1°F / 46.4°F 45.1°F / 47.7°F 29.96 inHg 38% 0.00″
03/25/2020 12:42 AM 46.8°F 46.8°F / 47.7°F 46.8°F / 47.7°F 29.96 inHg 38% 0.00″
03/24/2020 11:42 PM 48.0°F 47.5°F / 48.0°F 33.3°F / 61.0°F 29.96 inHg 32% 0.00″
03/24/2020 10:42 PM 47.7°F 47.5°F / 48.2°F 33.3°F / 61.0°F 29.96 inHg 34% 0.00″
03/24/2020 09:41 PM 47.8°F 47.8°F / 48.4°F 33.3°F / 61.0°F 29.96 inHg 29% 0.00″
03/24/2020 08:41 PM 47.8°F 47.8°F / 50.2°F 33.3°F / 61.0°F 29.94 inHg 33% 0.00″
03/24/2020 07:41 PM 52.0°F 52.0°F / 57.4°F 33.3°F / 61.0°F 29.92 inHg 28% 0.00″
03/24/2020 06:41 PM 58.6°F 58.6°F / 60.8°F 33.3°F / 61.0°F 29.92 inHg 21% 0.00″
03/24/2020 05:41 PM 60.6°F 60.4°F / 61.0°F 33.3°F / 61.0°F 29.92 inHg 20% 0.00″
03/24/2020 04:41 PM 60.3°F 60.1°F / 61.0°F 33.3°F / 61.0°F 29.92 inHg 23% 0.00″
03/24/2020 03:41 PM 60.1°F 59.7°F / 60.4°F 33.3°F / 60.4°F 29.94 inHg 24% 0.00″
03/24/2020 02:41 PM 58.8°F 58.3°F / 59.4°F 33.3°F / 59.4°F 29.95 inHg 21% 0.00″
03/24/2020 01:41 PM 57.7°F 56.1°F / 57.9°F 33.3°F / 57.9°F 29.97 inHg 23% 0.00″
03/24/2020 12:41 PM 55.8°F 54.0°F / 55.8°F 33.3°F / 55.8°F 29.99 inHg 27% 0.00″
03/24/2020 11:41 AM 53.4°F 51.4°F / 53.4°F 33.3°F / 53.4°F 29.99 inHg 31% 0.00″
03/24/2020 10:41 AM 50.4°F 46.8°F / 50.4°F 33.3°F / 50.4°F 29.99 inHg 31% 0.00″
03/24/2020 09:41 AM 44.2°F 38.1°F / 44.2°F 33.3°F / 48.4°F 29.98 inHg 41% 0.00″
03/24/2020 08:41 AM 36.3°F 33.4°F / 36.3°F 33.3°F / 48.4°F 29.96 inHg 60% 0.00″
03/24/2020 07:41 AM 33.3°F 33.3°F / 34.2°F 33.3°F / 48.4°F 29.94 inHg 63% 0.00″
03/24/2020 06:40 AM 34.7°F 34.7°F / 35.6°F 34.7°F / 48.4°F 29.91 inHg 56% 0.00″
03/24/2020 05:40 AM 35.8°F 35.8°F / 36.3°F 35.8°F / 48.4°F 29.89 inHg 55% 0.00″
03/24/2020 04:40 AM 37.0°F 36.9°F / 37.4°F 36.9°F / 48.4°F 29.87 inHg 53% 0.00″
03/24/2020 03:40 AM 38.7°F 38.7°F / 41.4°F 38.7°F / 48.4°F 29.87 inHg 52% 0.00″
03/24/2020 02:40 AM 42.4°F 42.4°F / 44.6°F 42.4°F / 48.4°F 29.87 inHg 43% 0.00″
03/24/2020 01:40 AM 44.8°F 44.8°F / 45.9°F 44.8°F / 48.4°F 29.87 inHg 37% 0.00″
03/24/2020 12:40 AM 46.8°F 46.8°F / 48.4°F 46.8°F / 48.4°F 29.88 inHg 31% 0.00″
03/23/2020 11:40 PM 48.9°F 48.9°F / 49.8°F 46.2°F / 62.8°F 29.88 inHg 24% 0.00″
03/23/2020 10:40 PM 50.4°F 50.2°F / 50.5°F 46.2°F / 62.8°F 29.88 inHg 24% 0.00″
03/23/2020 09:39 PM 50.2°F 50.2°F / 51.3°F 46.2°F / 62.8°F 29.88 inHg 30% 0.00″
03/23/2020 08:39 PM 51.6°F 51.6°F / 53.2°F 46.2°F / 62.8°F 29.86 inHg 31% 0.00″
03/23/2020 07:39 PM 53.8°F 53.8°F / 55.9°F 46.2°F / 62.8°F 29.84 inHg 29% 0.00″
03/23/2020 06:39 PM 56.3°F 56.3°F / 58.8°F 46.2°F / 62.8°F 29.83 inHg 27% 0.00″
03/23/2020 05:39 PM 58.5°F 58.5°F / 60.1°F 46.2°F / 62.8°F 29.80 inHg 23% 0.00″
03/23/2020 04:39 PM 58.6°F 58.6°F / 59.4°F 46.2°F / 62.8°F 29.80 inHg 25% 0.00″
03/23/2020 03:39 PM 60.3°F 60.3°F / 62.1°F 46.2°F / 62.8°F 29.80 inHg 22% 0.00″
03/23/2020 02:39 PM 62.6°F 61.3°F / 62.8°F 46.2°F / 62.8°F 29.81 inHg 21% 0.00″
03/23/2020 01:39 PM 60.8°F 60.6°F / 61.7°F 46.2°F / 62.2°F 29.83 inHg 20% 0.00″
03/23/2020 12:39 PM 62.2°F 58.8°F / 62.2°F 46.2°F / 62.2°F 29.87 inHg 21% 0.00″
03/23/2020 11:39 AM 57.9°F 57.7°F / 58.6°F 46.2°F / 58.6°F 29.91 inHg 21% 0.00″
03/23/2020 10:39 AM 56.7°F 55.8°F / 56.8°F 46.2°F / 56.8°F 29.93 inHg 27% 0.00″
03/23/2020 09:39 AM 55.2°F 52.3°F / 55.2°F 46.2°F / 55.2°F 29.92 inHg 28% 0.00″
03/23/2020 08:39 AM 50.4°F 47.3°F / 50.4°F 46.2°F / 50.4°F 29.94 inHg 34% 0.00″
03/23/2020 07:39 AM 46.8°F 46.4°F / 46.8°F 46.2°F / 49.8°F 29.95 inHg 44% 0.00″
03/23/2020 06:38 AM 46.4°F 46.2°F / 46.6°F 46.2°F / 49.8°F 29.93 inHg 39% 0.00″
03/23/2020 05:38 AM 47.1°F 47.1°F / 48.6°F 46.2°F / 49.8°F 29.93 inHg 43% 0.00″
03/23/2020 04:38 AM 48.7°F 48.0°F / 48.7°F 46.2°F / 49.8°F 29.93 inHg 40% 0.00″
03/23/2020 03:38 AM 48.0°F 47.8°F / 48.4°F 46.2°F / 49.8°F 29.94 inHg 39% 0.00″
03/23/2020 02:38 AM 47.8°F 47.8°F / 49.5°F 46.2°F / 49.8°F 29.96 inHg 42% 0.00″
03/23/2020 01:38 AM 49.6°F 48.4°F / 49.8°F 46.2°F / 49.8°F 29.97 inHg 36% 0.00″
03/23/2020 12:37 AM 47.1°F 46.2°F / 47.1°F 46.2°F / 47.1°F 29.97 inHg 40% 0.00″
03/22/2020 11:37 PM 46.2°F 46.2°F / 46.8°F 38.5°F / 60.6°F 29.99 inHg 41% 0.00″
03/22/2020 10:37 PM 46.9°F 45.9°F / 47.1°F 38.5°F / 60.6°F 30.00 inHg 36% 0.00″
03/22/2020 09:37 PM 45.7°F 45.7°F / 46.0°F 38.5°F / 60.6°F 30.00 inHg 38% 0.00″
03/22/2020 08:37 PM 46.0°F 46.0°F / 48.0°F 38.5°F / 60.6°F 29.97 inHg 42% 0.00″
03/22/2020 07:36 PM 50.0°F 50.0°F / 53.4°F 38.5°F / 60.6°F 29.95 inHg 36% 0.00″
03/22/2020 06:36 PM 55.0°F 55.0°F / 57.9°F 38.5°F / 60.6°F 29.94 inHg 24% 0.00″
03/22/2020 05:36 PM 58.3°F 58.3°F / 60.6°F 38.5°F / 60.6°F 29.93 inHg 21% 0.00″
03/22/2020 04:36 PM 60.3°F 59.5°F / 60.4°F 38.5°F / 60.4°F 29.93 inHg 20% 0.00″
03/22/2020 03:36 PM 59.4°F 59.0°F / 59.5°F 38.5°F / 59.5°F 29.94 inHg 22% 0.00″
03/22/2020 02:36 PM 57.9°F 56.8°F / 57.9°F 38.5°F / 57.9°F 29.96 inHg 27% 0.00″
03/22/2020 01:36 PM 56.5°F 55.9°F / 56.7°F 38.5°F / 57.2°F 29.98 inHg 25% 0.00″
03/22/2020 12:36 PM 56.8°F 55.6°F / 56.8°F 38.5°F / 56.8°F 29.99 inHg 26% 0.00″
03/22/2020 11:36 AM 54.3°F 53.2°F / 54.3°F 38.5°F / 54.3°F 30.01 inHg 30% 0.00″
03/22/2020 10:36 AM 52.3°F 50.4°F / 52.3°F 38.5°F / 52.3°F 30.01 inHg 32% 0.00″
03/22/2020 09:36 AM 48.4°F 43.3°F / 48.4°F 38.5°F / 48.4°F 29.99 inHg 31% 0.00″
03/22/2020 08:36 AM 41.2°F 39.2°F / 41.2°F 38.5°F / 44.2°F 29.99 inHg 52% 0.00″
03/22/2020 07:35 AM 38.7°F 38.5°F / 38.7°F 38.5°F / 44.2°F 29.99 inHg 55% 0.00″
03/22/2020 06:35 AM 38.7°F 38.7°F / 39.9°F 38.7°F / 44.2°F 29.97 inHg 52% 0.00″
03/22/2020 05:35 AM 39.6°F 39.6°F / 40.1°F 39.6°F / 44.2°F 29.96 inHg 51% 0.00″
03/22/2020 04:35 AM 40.3°F 40.3°F / 41.2°F 40.3°F / 44.2°F 29.96 inHg 53% 0.00″
03/22/2020 03:35 AM 41.4°F 41.4°F / 42.6°F 41.4°F / 44.2°F 29.97 inHg 52% 0.00″
03/22/2020 02:35 AM 42.8°F 42.6°F / 43.3°F 42.6°F / 44.2°F 29.98 inHg 50% 0.00″
03/22/2020 01:35 AM 43.2°F 43.2°F / 43.5°F 43.2°F / 44.2°F 29.98 inHg 52% 0.00″
03/22/2020 12:35 AM 44.2°F 44.1°F / 44.2°F 44.1°F / 44.2°F 29.98 inHg 51% 0.00″
03/21/2020 11:35 PM 44.2°F 44.2°F / 44.8°F 36.7°F / 59.9°F 29.99 inHg 55% 0.00″
03/21/2020 10:35 PM 45.0°F 44.6°F / 45.3°F 36.7°F / 59.9°F 29.98 inHg 58% 0.00″
03/21/2020 09:35 PM 44.8°F 44.8°F / 46.6°F 36.7°F / 59.9°F 29.96 inHg 58% 0.00″
03/21/2020 08:35 PM 48.6°F 48.6°F / 50.5°F 36.7°F / 59.9°F 29.94 inHg 48% 0.00″
03/21/2020 07:35 PM 51.4°F 51.4°F / 54.0°F 36.7°F / 59.9°F 29.92 inHg 42% 0.00″
03/21/2020 06:35 PM 55.8°F 55.8°F / 56.8°F 36.7°F / 59.9°F 29.92 inHg 37% 0.00″
03/21/2020 05:35 PM 58.1°F 58.1°F / 59.5°F 36.7°F / 59.9°F 29.92 inHg 34% 0.00″
03/21/2020 04:35 PM 58.8°F 58.8°F / 59.9°F 36.7°F / 59.9°F 29.93 inHg 28% 0.00″
03/21/2020 03:35 PM 59.5°F 59.2°F / 59.7°F 36.7°F / 59.7°F 29.94 inHg 27% 0.00″
03/21/2020 02:32 PM 58.1°F 56.1°F / 58.1°F 36.7°F / 58.1°F 29.96 inHg 49% 0.00″
03/21/2020 01:32 PM 55.9°F 54.3°F / 56.3°F 36.7°F / 56.3°F 29.99 inHg 59% 0.00″
03/21/2020 12:32 PM 52.0°F 50.4°F / 52.0°F 36.7°F / 52.0°F 30.03 inHg 62% 0.00″
03/21/2020 11:32 AM 51.1°F 47.8°F / 51.1°F 36.7°F / 51.1°F 30.06 inHg 62% 0.00″
03/21/2020 10:32 AM 47.1°F 47.1°F / 48.2°F 36.7°F / 48.2°F 30.09 inHg 64% 0.00″
03/21/2020 09:32 AM 44.2°F 42.1°F / 44.2°F 36.7°F / 44.2°F 30.08 inHg 64% 0.00″
03/21/2020 08:32 AM 40.6°F 39.4°F / 40.6°F 36.7°F / 41.7°F 30.09 inHg 74% 0.00″
03/21/2020 07:31 AM 37.6°F 36.7°F / 37.6°F 36.7°F / 41.7°F 30.07 inHg 75% 0.00″
03/21/2020 06:31 AM 36.9°F 36.9°F / 37.2°F 36.9°F / 41.7°F 30.07 inHg 76% 0.00″
03/21/2020 05:30 AM 37.6°F 37.2°F / 37.6°F 36.9°F / 41.7°F 30.06 inHg 74% 0.00″
03/21/2020 04:30 AM 38.3°F 36.9°F / 38.3°F 36.9°F / 41.7°F 30.05 inHg 71% 0.00″
03/21/2020 03:30 AM 37.0°F 37.0°F / 37.6°F 37.0°F / 41.7°F 30.08 inHg 74% 0.00″
03/21/2020 02:30 AM 38.3°F 38.3°F / 39.0°F 38.3°F / 41.7°F 30.09 inHg 71% 0.00″
03/21/2020 01:30 AM 39.7°F 39.7°F / 40.8°F 39.7°F / 41.7°F 30.11 inHg 67% 0.00″
03/21/2020 12:30 AM 41.5°F 41.5°F / 41.7°F 41.5°F / 41.7°F 30.15 inHg 65% 0.00″
03/20/2020 11:30 PM 42.3°F 42.3°F / 42.6°F 32.5°F / 56.1°F 30.16 inHg 61% 0.00″
03/20/2020 10:29 PM 43.2°F 43.2°F / 43.9°F 32.5°F / 56.1°F 30.16 inHg 62% 0.00″
03/20/2020 09:29 PM 44.8°F 44.8°F / 45.0°F 32.5°F / 56.1°F 30.16 inHg 57% 0.00″
03/20/2020 08:29 PM 44.8°F 44.2°F / 44.8°F 32.5°F / 56.1°F 30.16 inHg 57% 0.00″
03/20/2020 07:29 PM 48.0°F 48.0°F / 49.8°F 32.5°F / 56.1°F 30.16 inHg 49% 0.00″
03/20/2020 06:29 PM 51.1°F 51.1°F / 53.4°F 32.5°F / 56.1°F 30.15 inHg 38% 0.00″
03/20/2020 05:29 PM 54.5°F 54.1°F / 54.9°F 32.5°F / 56.1°F 30.14 inHg 35% 0.00″
03/20/2020 04:29 PM 55.8°F 55.6°F / 56.1°F 32.5°F / 56.1°F 30.12 inHg 38% 0.00″
03/20/2020 03:29 PM 53.4°F 52.2°F / 53.4°F 32.5°F / 53.8°F 30.13 inHg 41% 0.00″
03/20/2020 02:29 PM 50.5°F 50.5°F / 53.4°F 32.5°F / 53.8°F 30.16 inHg 48% 0.00″
03/20/2020 01:29 PM 52.7°F 50.7°F / 52.7°F 32.5°F / 52.7°F 30.19 inHg 44% 0.00″
03/20/2020 12:29 PM 49.3°F 48.0°F / 49.3°F 32.5°F / 49.3°F 30.22 inHg 56% 0.00″
03/20/2020 11:28 AM 48.9°F 48.4°F / 48.9°F 32.5°F / 48.9°F 30.25 inHg 51% 0.00″
03/20/2020 10:28 AM 46.2°F 43.5°F / 46.2°F 32.5°F / 46.2°F 30.25 inHg 50% 0.00″
03/20/2020 09:28 AM 40.6°F 38.7°F / 40.6°F 32.5°F / 40.6°F 30.25 inHg 60% 0.00″
03/20/2020 08:28 AM 35.6°F 33.4°F / 35.6°F 32.5°F / 36.7°F 30.24 inHg 70% 0.00″
03/20/2020 07:28 AM 32.9°F 32.7°F / 33.4°F 32.5°F / 36.7°F 30.21 inHg 66% 0.00″
03/20/2020 06:28 AM 34.3°F 33.6°F / 34.3°F 32.5°F / 36.7°F 30.20 inHg 59% 0.00″
03/20/2020 05:28 AM 33.1°F 32.5°F / 33.1°F 32.5°F / 36.7°F 30.17 inHg 68% 0.00″
03/20/2020 04:28 AM 34.5°F 34.2°F / 34.5°F 33.3°F / 36.7°F 30.15 inHg 73% 0.00″
03/20/2020 03:28 AM 33.4°F 33.4°F / 35.1°F 33.4°F / 36.7°F 30.15 inHg 76% 0.00″
03/20/2020 02:27 AM 35.1°F 35.1°F / 35.4°F 35.1°F / 36.7°F 30.16 inHg 72% 0.00″
03/20/2020 01:27 AM 36.0°F 36.0°F / 36.7°F 36.0°F / 36.7°F 30.17 inHg 65% 0.00″
03/20/2020 12:27 AM 36.1°F 36.1°F / 36.7°F 36.1°F / 36.7°F 30.16 inHg 64% 0.00″
03/19/2020 11:27 PM 36.7°F 36.5°F / 36.7°F 31.8°F / 49.5°F 30.15 inHg 61% 0.34″
03/19/2020 10:27 PM 37.0°F 37.0°F / 37.4°F 31.8°F / 49.5°F 30.14 inHg 63% 0.34″
03/19/2020 09:27 PM 37.6°F 37.6°F / 38.5°F 31.8°F / 49.5°F 30.11 inHg 58% 0.34″
03/19/2020 08:27 PM 38.7°F 38.7°F / 39.6°F 31.8°F / 49.5°F 30.08 inHg 59% 0.34″
03/19/2020 07:26 PM 43.5°F 43.5°F / 45.3°F 31.8°F / 49.5°F 30.04 inHg 55% 0.34″
03/19/2020 06:26 PM 47.1°F 46.2°F / 47.1°F 31.8°F / 49.5°F 30.02 inHg 43% 0.34″
03/19/2020 05:26 PM 47.8°F 47.5°F / 48.7°F 31.8°F / 48.9°F 30.00 inHg 49% 0.34″
03/19/2020 04:26 PM 48.0°F 46.6°F / 48.0°F 31.8°F / 48.0°F 29.98 inHg 48% 0.34″
03/19/2020 03:26 PM 46.9°F 46.2°F / 46.9°F 31.8°F / 46.9°F 29.98 inHg 56% 0.33″
03/19/2020 02:26 PM 45.7°F 45.1°F / 45.7°F 31.8°F / 45.7°F 29.97 inHg 55% 0.32″
03/19/2020 01:26 PM 43.7°F 42.4°F / 43.7°F 31.8°F / 43.9°F 29.98 inHg 64% 0.28″
03/19/2020 12:26 PM 42.1°F 40.8°F / 42.3°F 31.8°F / 43.9°F 29.97 inHg 64% 0.20″
03/19/2020 11:25 AM 37.9°F 36.9°F / 37.9°F 31.8°F / 43.9°F 29.99 inHg 70% 0.10″
03/19/2020 10:25 AM 35.4°F 34.7°F / 35.4°F 31.8°F / 43.9°F 29.98 inHg 74% 0.06″
03/19/2020 09:25 AM 34.0°F 32.7°F / 34.0°F 31.8°F / 43.9°F 29.94 inHg 81% 0.05″
03/19/2020 08:25 AM 32.4°F 32.4°F / 32.4°F 31.8°F / 43.9°F 29.91 inHg 85% 0.04″
03/19/2020 07:25 AM 32.2°F 31.8°F / 32.2°F 31.8°F / 43.9°F 29.86 inHg 84% 0.04″
03/19/2020 06:25 AM 32.7°F 32.7°F / 33.1°F 32.7°F / 43.9°F 29.82 inHg 87% 0.04″
03/19/2020 05:25 AM 33.4°F 33.4°F / 34.2°F 33.4°F / 43.9°F 29.80 inHg 90% 0.04″
03/19/2020 04:25 AM 34.3°F 34.3°F / 35.1°F 33.8°F / 43.9°F 29.78 inHg 90% 0.04″
03/19/2020 03:25 AM 34.9°F 34.9°F / 35.1°F 33.8°F / 43.9°F 29.76 inHg 91% 0.04″
03/19/2020 02:25 AM 34.9°F 34.3°F / 34.9°F 33.8°F / 43.9°F 29.77 inHg 91% 0.04″
03/19/2020 01:25 AM 34.0°F 33.8°F / 34.0°F 33.8°F / 43.9°F 29.78 inHg 90% 0.04″
03/19/2020 12:25 AM 37.8°F 37.8°F / 43.9°F 37.8°F / 43.9°F 29.73 inHg 83% 0.04″
03/18/2020 11:25 PM 45.1°F 45.1°F / 46.2°F 41.5°F / 52.5°F 29.68 inHg 82% 0.51″
03/18/2020 10:25 PM 45.7°F 45.0°F / 45.7°F 41.5°F / 52.5°F 29.69 inHg 84% 0.50″
03/18/2020 09:24 PM 43.5°F 43.0°F / 43.5°F 41.5°F / 52.5°F 29.70 inHg 89% 0.50″
03/18/2020 08:24 PM 42.6°F 42.6°F / 43.0°F 41.5°F / 52.5°F 29.70 inHg 90% 0.50″
03/18/2020 07:24 PM 43.2°F 42.6°F / 43.2°F 41.5°F / 52.5°F 29.71 inHg 90% 0.48″
03/18/2020 06:24 PM 42.4°F 42.4°F / 43.5°F 41.5°F / 52.5°F 29.72 inHg 90% 0.42″
03/18/2020 05:24 PM 44.4°F 43.9°F / 44.4°F 41.5°F / 52.5°F 29.71 inHg 89% 0.35″
03/18/2020 04:24 PM 43.3°F 43.0°F / 43.3°F 41.5°F / 52.5°F 29.72 inHg 90% 0.35″
03/18/2020 03:24 PM 42.6°F 41.7°F / 42.6°F 41.5°F / 52.5°F 29.77 inHg 89% 0.32″
03/18/2020 02:23 PM 42.3°F 42.3°F / 43.3°F 42.3°F / 52.5°F 29.81 inHg 88% 0.25″
03/18/2020 01:23 PM 43.9°F 43.9°F / 44.2°F 42.4°F / 52.5°F 29.83 inHg 86% 0.14″
03/18/2020 12:23 PM 46.6°F 46.6°F / 50.5°F 42.4°F / 52.5°F 29.86 inHg 77% 0.04″
03/18/2020 11:23 AM 52.3°F 51.4°F / 52.3°F 42.4°F / 52.3°F 29.84 inHg 56% 0.00″
03/18/2020 10:23 AM 51.1°F 50.7°F / 51.1°F 42.4°F / 51.1°F 29.84 inHg 55% 0.00″
03/18/2020 09:23 AM 48.6°F 44.8°F / 48.6°F 42.4°F / 48.6°F 29.81 inHg 62% 0.00″
03/18/2020 08:23 AM 43.0°F 42.4°F / 43.0°F 42.4°F / 46.9°F 29.82 inHg 73% 0.00″
03/18/2020 07:23 AM 43.3°F 43.3°F / 43.9°F 43.3°F / 46.9°F 29.82 inHg 70% 0.00″
03/18/2020 06:23 AM 43.9°F 43.9°F / 44.4°F 43.3°F / 46.9°F 29.80 inHg 73% 0.00″
03/18/2020 04:35 AM 43.3°F 43.3°F / 43.9°F 43.3°F / 46.9°F 29.80 inHg 75% 0.00″
03/18/2020 03:35 AM 45.3°F 45.3°F / 46.2°F 45.3°F / 46.9°F 29.81 inHg 70% 0.00″
03/18/2020 02:35 AM 46.2°F 45.9°F / 46.2°F 45.9°F / 46.9°F 29.83 inHg 67% 0.00″
03/18/2020 01:35 AM 46.2°F 46.2°F / 46.8°F 46.2°F / 46.9°F 29.83 inHg 68% 0.00″
03/18/2020 12:35 AM 46.6°F 46.6°F / 46.9°F 46.6°F / 46.9°F 29.83 inHg 63% 0.00″
03/17/2020 11:35 PM 46.8°F 46.8°F / 47.7°F 46.6°F / 57.7°F 29.84 inHg 64% 0.04″
03/17/2020 10:34 PM 48.2°F 48.0°F / 48.6°F 46.6°F / 57.7°F 29.84 inHg 65% 0.04″
03/17/2020 09:34 PM 47.5°F 47.5°F / 48.2°F 46.6°F / 57.7°F 29.84 inHg 67% 0.04″
03/17/2020 08:34 PM 48.6°F 48.6°F / 48.7°F 46.6°F / 57.7°F 29.82 inHg 64% 0.04″
03/17/2020 07:34 PM 48.7°F 48.7°F / 50.2°F 46.6°F / 57.7°F 29.82 inHg 63% 0.04″
03/17/2020 06:34 PM 51.8°F 50.0°F / 51.8°F 46.6°F / 57.7°F 29.80 inHg 59% 0.04″
03/17/2020 05:34 PM 50.2°F 50.2°F / 50.7°F 46.6°F / 57.7°F 29.78 inHg 65% 0.04″
03/17/2020 04:34 PM 49.8°F 49.3°F / 49.8°F 46.6°F / 57.7°F 29.78 inHg 66% 0.04″
03/17/2020 03:34 PM 48.6°F 47.7°F / 48.6°F 46.6°F / 57.7°F 29.78 inHg 74% 0.04″
03/17/2020 02:34 PM 47.7°F 47.7°F / 47.8°F 46.6°F / 57.7°F 29.81 inHg 80% 0.04″
03/17/2020 01:33 PM 47.1°F 47.1°F / 50.5°F 46.6°F / 57.7°F 29.80 inHg 81% 0.04″
03/17/2020 12:33 PM 52.9°F 52.9°F / 54.1°F 46.6°F / 57.7°F 29.83 inHg 60% 0.00″
03/17/2020 11:33 AM 55.4°F 55.4°F / 57.6°F 46.6°F / 57.7°F 29.83 inHg 49% 0.00″
03/17/2020 10:33 AM 57.6°F 57.6°F / 57.7°F 46.6°F / 57.7°F 29.83 inHg 43% 0.00″
03/17/2020 09:33 AM 56.5°F 53.8°F / 56.5°F 46.6°F / 56.5°F 29.84 inHg 39% 0.00″
03/17/2020 08:33 AM 51.6°F 49.3°F / 51.6°F 46.6°F / 51.6°F 29.84 inHg 41% 0.00″
03/17/2020 07:33 AM 48.2°F 47.7°F / 48.4°F 46.6°F / 48.9°F 29.83 inHg 48% 0.00″
03/17/2020 06:33 AM 47.1°F 46.6°F / 47.3°F 46.6°F / 48.9°F 29.83 inHg 52% 0.00″
03/17/2020 05:33 AM 46.8°F 46.8°F / 47.1°F 46.8°F / 48.9°F 29.83 inHg 53% 0.00″
03/17/2020 04:33 AM 47.1°F 46.9°F / 47.5°F 46.9°F / 48.9°F 29.83 inHg 48% 0.00″
03/17/2020 03:33 AM 48.9°F 48.4°F / 48.9°F 47.7°F / 48.9°F 29.86 inHg 44% 0.00″
03/17/2020 02:33 AM 47.8°F 47.7°F / 48.4°F 47.7°F / 48.7°F 29.89 inHg 44% 0.00″
03/17/2020 01:33 AM 48.6°F 48.0°F / 48.6°F 47.8°F / 48.6°F 29.89 inHg 42% 0.00″
03/17/2020 12:33 AM 48.0°F 47.8°F / 48.0°F 47.8°F / 48.0°F 29.91 inHg 40% 0.00″
03/16/2020 11:32 PM 48.0°F 48.0°F / 48.4°F 39.2°F / 64.2°F 29.91 inHg 44% 0.00″
03/16/2020 10:32 PM 48.4°F 48.4°F / 49.3°F 39.2°F / 64.2°F 29.91 inHg 40% 0.00″
03/16/2020 09:32 PM 48.9°F 48.9°F / 51.1°F 39.2°F / 64.2°F 29.90 inHg 36% 0.00″
03/16/2020 08:32 PM 51.3°F 50.7°F / 51.4°F 39.2°F / 64.2°F 29.89 inHg 36% 0.00″
03/16/2020 07:32 PM 54.9°F 54.9°F / 57.9°F 39.2°F / 64.2°F 29.88 inHg 38% 0.00″
03/16/2020 06:32 PM 61.0°F 61.0°F / 62.8°F 39.2°F / 64.2°F 29.87 inHg 27% 0.00″
03/16/2020 05:32 PM 63.1°F 62.8°F / 63.7°F 39.2°F / 64.2°F 29.87 inHg 26% 0.00″
03/16/2020 04:32 PM 64.0°F 63.5°F / 64.2°F 39.2°F / 64.2°F 29.88 inHg 27% 0.00″
03/16/2020 03:32 PM 63.3°F 62.2°F / 63.3°F 39.2°F / 63.3°F 29.89 inHg 28% 0.00″
03/16/2020 02:32 PM 61.5°F 61.2°F / 61.9°F 39.2°F / 61.9°F 29.91 inHg 29% 0.00″
03/16/2020 01:32 PM 60.4°F 60.4°F / 61.0°F 39.2°F / 61.0°F 29.94 inHg 30% 0.00″
03/16/2020 12:31 PM 60.1°F 58.5°F / 60.1°F 39.2°F / 60.1°F 29.97 inHg 25% 0.00″
03/16/2020 11:31 AM 58.1°F 57.0°F / 58.1°F 39.2°F / 58.1°F 29.99 inHg 36% 0.00″
03/16/2020 10:31 AM 55.8°F 53.2°F / 55.8°F 39.2°F / 55.8°F 29.99 inHg 36% 0.00″
03/16/2020 09:31 AM 48.6°F 43.2°F / 48.6°F 39.2°F / 48.6°F 29.99 inHg 46% 0.00″
03/16/2020 08:31 AM 41.4°F 40.3°F / 41.4°F 39.2°F / 46.2°F 29.97 inHg 58% 0.00″
03/16/2020 07:31 AM 39.6°F 39.2°F / 39.6°F 39.2°F / 46.2°F 29.96 inHg 58% 0.00″
03/16/2020 06:31 AM 39.9°F 39.9°F / 40.3°F 39.9°F / 46.2°F 29.94 inHg 59% 0.00″
03/16/2020 05:31 AM 40.8°F 40.8°F / 41.4°F 40.8°F / 46.2°F 29.93 inHg 64% 0.00″
03/16/2020 04:31 AM 42.3°F 42.1°F / 42.3°F 42.1°F / 46.2°F 29.93 inHg 63% 0.00″
03/16/2020 03:31 AM 42.8°F 42.8°F / 43.3°F 42.8°F / 46.2°F 29.94 inHg 71% 0.00″
03/16/2020 02:31 AM 44.1°F 43.5°F / 44.1°F 43.5°F / 46.2°F 29.94 inHg 70% 0.00″
03/16/2020 12:39 AM 45.7°F 45.7°F / 46.2°F 45.7°F / 46.2°F 29.97 inHg 59% 0.00″
03/15/2020 11:39 PM 46.6°F 46.6°F / 47.5°F 40.8°F / 63.5°F 29.98 inHg 54% 0.00″
03/15/2020 10:39 PM 47.5°F 47.5°F / 48.2°F 40.8°F / 63.5°F 29.99 inHg 53% 0.00″
03/15/2020 09:39 PM 47.8°F 47.8°F / 48.6°F 40.8°F / 63.5°F 29.98 inHg 59% 0.00″
03/15/2020 08:39 PM 48.0°F 47.8°F / 50.2°F 40.8°F / 63.5°F 29.97 inHg 65% 0.00″
03/15/2020 07:39 PM 52.7°F 52.7°F / 58.6°F 40.8°F / 63.5°F 29.96 inHg 53% 0.00″
03/15/2020 06:38 PM 60.8°F 60.8°F / 62.2°F 40.8°F / 63.5°F 29.96 inHg 32% 0.00″
03/15/2020 05:38 PM 63.0°F 62.2°F / 63.1°F 40.8°F / 63.5°F 29.95 inHg 23% 0.00″
03/15/2020 04:38 PM 59.2°F 58.6°F / 60.4°F 40.8°F / 63.5°F 29.94 inHg 32% 0.00″
03/15/2020 03:38 PM 63.1°F 62.1°F / 63.5°F 40.8°F / 63.5°F 29.96 inHg 50% 0.00″
03/15/2020 02:38 PM 61.0°F 57.0°F / 61.0°F 40.8°F / 61.0°F 29.98 inHg 50% 0.00″
03/15/2020 01:38 PM 56.5°F 54.3°F / 56.5°F 40.8°F / 56.5°F 30.00 inHg 57% 0.00″
03/15/2020 12:38 PM 55.0°F 55.0°F / 55.8°F 40.8°F / 55.8°F 30.03 inHg 57% 0.00″
03/15/2020 11:38 AM 55.2°F 54.1°F / 55.2°F 40.8°F / 55.2°F 30.03 inHg 53% 0.00″
03/15/2020 10:38 AM 54.0°F 51.8°F / 54.0°F 40.8°F / 54.0°F 30.04 inHg 55% 0.00″
03/15/2020 09:37 AM 49.5°F 46.8°F / 49.5°F 40.8°F / 49.5°F 30.04 inHg 73% 0.00″
03/15/2020 08:37 AM 45.3°F 43.7°F / 45.3°F 40.8°F / 46.9°F 30.05 inHg 72% 0.00″
03/15/2020 07:37 AM 44.4°F 44.4°F / 46.0°F 40.8°F / 46.9°F 30.05 inHg 67% 0.00″
03/15/2020 06:37 AM 46.9°F 45.9°F / 46.9°F 40.8°F / 46.9°F 30.04 inHg 60% 0.00″
03/15/2020 05:37 AM 45.0°F 44.1°F / 45.1°F 40.8°F / 45.1°F 30.04 inHg 68% 0.00″
03/15/2020 04:37 AM 41.4°F 40.8°F / 42.1°F 40.8°F / 44.4°F 30.06 inHg 72% 0.00″
03/15/2020 03:36 AM 43.9°F 43.9°F / 44.4°F 41.4°F / 44.4°F 30.07 inHg 65% 0.00″
03/15/2020 02:36 AM 42.8°F 42.4°F / 43.5°F 41.4°F / 43.5°F 30.09 inHg 67% 0.00″
03/15/2020 01:36 AM 43.0°F 42.3°F / 43.3°F 41.4°F / 43.3°F 30.09 inHg 68% 0.00″
03/15/2020 12:36 AM 42.6°F 41.4°F / 42.6°F 41.4°F / 42.6°F 30.11 inHg 65% 0.00″
03/14/2020 11:36 PM 41.5°F 41.5°F / 42.4°F 34.9°F / 57.7°F 30.11 inHg 67% 0.00″
03/14/2020 10:36 PM 42.4°F 42.4°F / 43.5°F 34.9°F / 57.7°F 30.10 inHg 65% 0.00″
03/14/2020 09:36 PM 43.5°F 43.5°F / 45.1°F 34.9°F / 57.7°F 30.09 inHg 59% 0.00″
03/14/2020 08:36 PM 45.0°F 45.0°F / 46.2°F 34.9°F / 57.7°F 30.08 inHg 59% 0.00″
03/14/2020 07:36 PM 48.9°F 48.9°F / 53.4°F 34.9°F / 57.7°F 30.06 inHg 57% 0.00″
03/14/2020 06:36 PM 55.6°F 55.6°F / 56.7°F 34.9°F / 57.7°F 30.05 inHg 44% 0.00″
03/14/2020 05:35 PM 57.0°F 56.8°F / 57.6°F 34.9°F / 57.7°F 30.03 inHg 44% 0.00″
03/14/2020 04:35 PM 57.2°F 56.8°F / 57.4°F 34.9°F / 57.7°F 30.03 inHg 45% 0.00″
03/14/2020 03:35 PM 57.4°F 55.6°F / 57.4°F 34.9°F / 57.4°F 30.03 inHg 45% 0.00″
03/14/2020 02:35 PM 55.2°F 54.7°F / 55.2°F 34.9°F / 55.2°F 30.05 inHg 52% 0.00″
03/14/2020 01:35 PM 54.0°F 53.4°F / 54.0°F 34.9°F / 54.0°F 30.06 inHg 52% 0.00″
03/14/2020 12:35 PM 53.2°F 52.2°F / 53.2°F 34.9°F / 53.2°F 30.07 inHg 54% 0.00″
03/14/2020 11:35 AM 50.5°F 48.7°F / 50.5°F 34.9°F / 50.5°F 30.08 inHg 54% 0.00″
03/14/2020 10:35 AM 48.4°F 46.0°F / 48.4°F 34.9°F / 48.4°F 30.08 inHg 55% 0.00″
03/14/2020 09:35 AM 43.5°F 38.7°F / 43.5°F 34.9°F / 43.9°F 30.08 inHg 62% 0.00″
03/14/2020 08:35 AM 37.6°F 35.8°F / 37.9°F 34.9°F / 43.9°F 30.05 inHg 68% 0.00″
03/14/2020 07:35 AM 35.2°F 35.2°F / 36.1°F 35.2°F / 43.9°F 30.03 inHg 72% 0.00″
03/14/2020 06:35 AM 35.4°F 35.4°F / 35.6°F 35.4°F / 43.9°F 29.99 inHg 70% 0.00″
03/14/2020 05:35 AM 35.6°F 35.6°F / 36.1°F 35.6°F / 43.9°F 29.97 inHg 80% 0.00″
03/14/2020 04:35 AM 36.1°F 36.1°F / 36.9°F 36.1°F / 43.9°F 29.95 inHg 81% 0.00″
03/14/2020 03:35 AM 36.7°F 36.5°F / 37.6°F 36.5°F / 43.9°F 29.94 inHg 82% 0.00″
03/14/2020 02:34 AM 38.8°F 38.7°F / 40.8°F 38.7°F / 43.9°F 29.94 inHg 77% 0.00″
03/14/2020 01:34 AM 41.7°F 41.7°F / 42.4°F 41.7°F / 43.9°F 29.92 inHg 71% 0.00″
03/14/2020 12:34 AM 43.0°F 43.0°F / 43.9°F 43.0°F / 43.9°F 29.91 inHg 70% 0.00″
03/13/2020 11:34 PM 44.1°F 43.9°F / 44.1°F 43.9°F / 56.8°F 29.90 inHg 66% 0.51″
03/13/2020 10:34 PM 44.2°F 44.2°F / 44.6°F 44.2°F / 56.8°F 29.88 inHg 73% 0.51″
03/13/2020 09:34 PM 45.0°F 45.0°F / 45.5°F 45.0°F / 56.8°F 29.86 inHg 76% 0.51″
03/13/2020 08:34 PM 45.9°F 45.9°F / 46.9°F 45.9°F / 56.8°F 29.82 inHg 82% 0.51″
03/13/2020 07:34 PM 48.0°F 48.0°F / 48.6°F 46.0°F / 56.8°F 29.77 inHg 88% 0.51″
03/13/2020 06:34 PM 48.6°F 48.6°F / 49.6°F 46.0°F / 56.8°F 29.75 inHg 89% 0.51″
03/13/2020 05:34 PM 50.0°F 50.0°F / 50.4°F 46.0°F / 56.8°F 29.72 inHg 88% 0.51″
03/13/2020 04:34 PM 49.8°F 48.6°F / 50.2°F 46.0°F / 56.8°F 29.73 inHg 89% 0.45″
03/13/2020 03:34 PM 46.8°F 46.8°F / 53.8°F 46.0°F / 56.8°F 29.75 inHg 85% 0.44″
03/13/2020 02:34 PM 56.1°F 54.9°F / 56.8°F 46.0°F / 56.8°F 29.70 inHg 67% 0.30″
03/13/2020 11:34 AM 47.1°F 46.4°F / 47.1°F 46.0°F / 47.5°F 29.82 inHg 91% 0.30″
03/13/2020 10:34 AM 47.1°F 46.9°F / 47.1°F 46.0°F / 47.5°F 29.83 inHg 91% 0.22″
03/13/2020 09:34 AM 47.1°F 47.1°F / 47.1°F 46.0°F / 47.5°F 29.83 inHg 91% 0.14″
03/13/2020 08:34 AM 46.9°F 46.8°F / 46.9°F 46.0°F / 47.5°F 29.81 inHg 90% 0.12″
03/13/2020 07:33 AM 46.9°F 46.8°F / 46.9°F 46.0°F / 47.5°F 29.81 inHg 89% 0.12″
03/13/2020 06:33 AM 46.9°F 46.8°F / 46.9°F 46.0°F / 47.5°F 29.80 inHg 89% 0.11″
03/13/2020 05:33 AM 46.2°F 46.2°F / 46.6°F 46.0°F / 47.5°F 29.77 inHg 90% 0.11″
03/13/2020 04:33 AM 47.1°F 47.1°F / 47.5°F 46.0°F / 47.5°F 29.76 inHg 87% 0.08″
03/13/2020 03:33 AM 47.3°F 46.8°F / 47.3°F 46.0°F / 47.3°F 29.76 inHg 87% 0.05″
03/13/2020 02:33 AM 46.2°F 46.0°F / 46.2°F 46.0°F / 46.6°F 29.78 inHg 91% 0.05″
03/13/2020 01:33 AM 46.0°F 46.0°F / 46.6°F 46.0°F / 46.6°F 29.78 inHg 92% 0.05″
03/13/2020 12:33 AM 46.6°F 46.6°F / 46.6°F 46.6°F / 46.6°F 29.78 inHg 91% 0.02″
03/12/2020 11:33 PM 46.6°F 46.6°F / 46.6°F 46.2°F / 55.8°F 29.79 inHg 92% 0.11″
03/12/2020 09:32 PM 46.8°F 46.6°F / 46.8°F 46.6°F / 55.8°F 29.78 inHg 93% 0.09″
03/12/2020 08:32 PM 46.6°F 46.6°F / 46.8°F 46.6°F / 55.8°F 29.75 inHg 92% 0.06″
03/12/2020 07:32 PM 46.9°F 46.9°F / 47.1°F 46.9°F / 55.8°F 29.73 inHg 90% 0.06″
03/12/2020 06:32 PM 47.3°F 47.3°F / 48.0°F 47.3°F / 55.8°F 29.70 inHg 89% 0.06″
03/12/2020 05:32 PM 48.7°F 48.6°F / 48.9°F 47.5°F / 55.8°F 29.70 inHg 88% 0.05″
03/12/2020 04:31 PM 49.8°F 49.8°F / 52.5°F 47.5°F / 55.8°F 29.70 inHg 83% 0.03″
03/12/2020 03:31 PM 54.1°F 53.4°F / 54.1°F 47.5°F / 55.8°F 29.69 inHg 78% 0.01″
03/12/2020 02:31 PM 53.4°F 53.4°F / 54.0°F 47.5°F / 55.8°F 29.72 inHg 82% 0.01″
03/12/2020 01:31 PM 54.7°F 54.7°F / 55.6°F 47.5°F / 55.8°F 29.75 inHg 72% 0.00″
03/12/2020 12:31 PM 55.0°F 54.9°F / 55.6°F 47.5°F / 55.8°F 29.77 inHg 72% 0.00″
03/12/2020 11:31 AM 55.2°F 54.9°F / 55.8°F 47.5°F / 55.8°F 29.77 inHg 73% 0.00″
03/12/2020 10:31 AM 54.9°F 53.2°F / 54.9°F 47.5°F / 54.9°F 29.76 inHg 76% 0.00″
03/12/2020 09:31 AM 52.3°F 50.7°F / 52.3°F 47.5°F / 52.3°F 29.77 inHg 79% 0.00″
03/12/2020 08:31 AM 48.0°F 47.5°F / 48.0°F 47.5°F / 52.2°F 29.76 inHg 85% 0.00″
03/12/2020 07:31 AM 47.7°F 47.7°F / 48.4°F 47.7°F / 52.2°F 29.75 inHg 83% 0.00″
03/12/2020 06:31 AM 49.1°F 49.1°F / 49.8°F 49.1°F / 52.2°F 29.76 inHg 80% 0.00″
03/12/2020 05:31 AM 50.4°F 50.4°F / 50.7°F 50.4°F / 52.2°F 29.77 inHg 77% 0.00″
03/12/2020 04:31 AM 51.1°F 50.7°F / 51.3°F 50.7°F / 52.2°F 29.77 inHg 77% 0.00″
03/12/2020 03:31 AM 51.3°F 51.1°F / 51.3°F 51.1°F / 52.2°F 29.79 inHg 78% 0.00″
03/12/2020 02:31 AM 51.4°F 51.4°F / 51.4°F 51.4°F / 52.2°F 29.82 inHg 76% 0.00″
03/12/2020 01:31 AM 52.0°F 51.8°F / 52.2°F 51.8°F / 52.2°F 29.83 inHg 74% 0.00″
03/12/2020 12:31 AM 52.2°F 51.8°F / 52.2°F 51.8°F / 52.2°F 29.85 inHg 73% 0.00″
03/11/2020 11:31 PM 52.3°F 52.3°F / 52.5°F 44.6°F / 61.5°F 29.86 inHg 73% 0.00″
03/11/2020 10:31 PM 53.1°F 53.1°F / 53.6°F 44.6°F / 61.5°F 29.86 inHg 72% 0.00″
03/11/2020 09:31 PM 54.1°F 54.1°F / 54.7°F 44.6°F / 61.5°F 29.87 inHg 69% 0.00″
03/11/2020 08:31 PM 54.1°F 54.1°F / 54.3°F 44.6°F / 61.5°F 29.86 inHg 69% 0.00″
03/11/2020 07:31 PM 55.0°F 55.0°F / 56.5°F 44.6°F / 61.5°F 29.85 inHg 66% 0.00″
03/11/2020 06:31 PM 57.6°F 57.6°F / 58.6°F 44.6°F / 61.5°F 29.86 inHg 62% 0.00″
03/11/2020 05:31 PM 59.0°F 58.8°F / 60.1°F 44.6°F / 61.5°F 29.86 inHg 59% 0.00″
03/11/2020 04:31 PM 60.6°F 60.3°F / 61.5°F 44.6°F / 61.5°F 29.87 inHg 58% 0.00″
03/11/2020 03:30 PM 60.1°F 59.5°F / 60.8°F 44.6°F / 61.5°F 29.89 inHg 58% 0.00″
03/11/2020 02:30 PM 61.5°F 60.8°F / 61.5°F 44.6°F / 61.5°F 29.91 inHg 58% 0.00″
03/11/2020 01:30 PM 60.1°F 58.6°F / 60.1°F 44.6°F / 60.1°F 29.96 inHg 58% 0.00″
03/11/2020 12:30 PM 57.9°F 56.8°F / 58.1°F 44.6°F / 58.1°F 30.00 inHg 61% 0.00″
03/11/2020 11:30 AM 57.7°F 56.7°F / 57.7°F 44.6°F / 57.7°F 30.02 inHg 61% 0.00″
03/11/2020 10:30 AM 55.9°F 54.3°F / 55.9°F 44.6°F / 55.9°F 30.03 inHg 64% 0.00″
03/11/2020 09:30 AM 52.2°F 49.5°F / 52.2°F 44.6°F / 52.2°F 30.03 inHg 74% 0.00″
03/11/2020 08:30 AM 46.9°F 46.2°F / 46.9°F 44.6°F / 46.9°F 30.02 inHg 83% 0.00″
03/11/2020 07:30 AM 46.0°F 46.0°F / 46.8°F 44.6°F / 46.8°F 30.01 inHg 81% 0.00″
03/11/2020 06:29 AM 46.2°F 46.0°F / 46.2°F 44.6°F / 46.2°F 30.04 inHg 80% 0.00″
03/11/2020 05:29 AM 45.9°F 45.9°F / 46.0°F 44.6°F / 46.0°F 30.04 inHg 80% 0.00″
03/11/2020 04:29 AM 45.1°F 45.0°F / 45.1°F 44.6°F / 46.0°F 30.04 inHg 81% 0.00″
03/11/2020 03:29 AM 45.1°F 45.0°F / 45.1°F 44.6°F / 46.0°F 30.05 inHg 80% 0.00″
03/11/2020 02:29 AM 45.0°F 44.6°F / 45.0°F 44.6°F / 46.0°F 30.07 inHg 80% 0.00″
03/11/2020 01:29 AM 45.5°F 45.5°F / 46.0°F 45.5°F / 46.0°F 30.07 inHg 80% 0.00″
03/11/2020 12:29 AM 45.7°F 45.7°F / 45.9°F 45.7°F / 45.9°F 30.10 inHg 79% 0.00″
03/10/2020 11:28 PM 46.2°F 46.2°F / 46.4°F 39.7°F / 59.5°F 30.12 inHg 78% 0.00″
03/10/2020 10:28 PM 46.6°F 46.6°F / 46.9°F 39.7°F / 59.5°F 30.12 inHg 77% 0.00″
03/10/2020 09:28 PM 46.9°F 46.9°F / 47.1°F 39.7°F / 59.5°F 30.12 inHg 75% 0.00″
03/10/2020 08:28 PM 47.8°F 47.8°F / 48.6°F 39.7°F / 59.5°F 30.11 inHg 74% 0.00″
03/10/2020 07:27 PM 50.9°F 50.9°F / 53.4°F 39.7°F / 59.5°F 30.10 inHg 67% 0.00″
03/10/2020 06:27 PM 55.2°F 55.2°F / 56.3°F 39.7°F / 59.5°F 30.08 inHg 58% 0.00″
03/10/2020 05:26 PM 57.9°F 57.9°F / 59.0°F 39.7°F / 59.5°F 30.06 inHg 51% 0.00″
03/10/2020 04:26 PM 59.0°F 58.5°F / 59.2°F 39.7°F / 59.4°F 30.07 inHg 51% 0.00″
03/10/2020 03:26 PM 59.0°F 58.5°F / 59.2°F 39.7°F / 59.4°F 30.09 inHg 52% 0.00″
03/10/2020 02:26 PM 58.6°F 58.6°F / 59.4°F 39.7°F / 59.4°F 30.12 inHg 50% 0.00″
03/10/2020 01:26 PM 58.5°F 58.3°F / 58.8°F 39.7°F / 59.2°F 30.15 inHg 48% 0.00″
03/10/2020 12:26 PM 58.3°F 57.7°F / 58.3°F 39.7°F / 58.3°F 30.15 inHg 53% 0.00″
03/10/2020 11:26 AM 55.2°F 53.8°F / 55.2°F 39.7°F / 55.2°F 30.17 inHg 57% 0.00″
03/10/2020 10:26 AM 52.5°F 51.3°F / 52.5°F 39.7°F / 52.5°F 30.18 inHg 66% 0.00″
03/10/2020 09:25 AM 45.5°F 42.4°F / 45.5°F 39.7°F / 45.5°F 30.18 inHg 82% 0.00″
03/10/2020 08:25 AM 41.7°F 41.2°F / 41.7°F 39.7°F / 43.3°F 30.16 inHg 85% 0.00″
03/10/2020 07:25 AM 40.8°F 40.5°F / 40.8°F 39.7°F / 43.3°F 30.15 inHg 87% 0.00″
03/10/2020 06:25 AM 40.3°F 40.3°F / 40.3°F 39.7°F / 43.3°F 30.15 inHg 87% 0.00″
03/10/2020 05:25 AM 40.5°F 39.9°F / 40.5°F 39.7°F / 43.3°F 30.14 inHg 85% 0.00″
03/10/2020 04:25 AM 40.3°F 40.3°F / 40.6°F 40.3°F / 43.3°F 30.15 inHg 84% 0.00″
03/10/2020 03:25 AM 41.2°F 41.2°F / 41.9°F 41.2°F / 43.3°F 30.16 inHg 83% 0.00″
03/10/2020 02:25 AM 42.4°F 42.4°F / 43.3°F 41.7°F / 43.3°F 30.17 inHg 79% 0.00″
03/10/2020 01:25 AM 42.6°F 42.6°F / 43.0°F 41.7°F / 43.3°F 30.19 inHg 76% 0.00″
03/10/2020 12:25 AM 43.2°F 41.7°F / 43.2°F 41.7°F / 43.2°F 30.20 inHg 68% 0.00″
03/09/2020 11:25 PM 41.7°F 41.5°F / 41.7°F 35.4°F / 55.9°F 30.19 inHg 70% 0.01″
03/09/2020 10:25 PM 42.3°F 42.1°F / 42.3°F 35.4°F / 55.9°F 30.18 inHg 73% 0.01″
03/09/2020 09:24 PM 41.0°F 40.8°F / 41.5°F 35.4°F / 55.9°F 30.18 inHg 74% 0.01″
03/09/2020 08:24 PM 42.3°F 42.3°F / 43.2°F 35.4°F / 55.9°F 30.15 inHg 73% 0.01″
03/09/2020 07:24 PM 47.7°F 47.7°F / 50.9°F 35.4°F / 55.9°F 30.12 inHg 61% 0.01″
03/09/2020 06:24 PM 53.2°F 53.2°F / 54.1°F 35.4°F / 55.9°F 30.11 inHg 47% 0.01″
03/09/2020 05:24 PM 54.9°F 54.9°F / 54.9°F 35.4°F / 55.9°F 30.10 inHg 40% 0.01″
03/09/2020 04:24 PM 55.6°F 55.6°F / 55.9°F 35.4°F / 55.9°F 30.11 inHg 38% 0.01″
03/09/2020 03:24 PM 54.5°F 54.1°F / 54.7°F 35.4°F / 55.0°F 30.11 inHg 35% 0.01″
03/09/2020 02:24 PM 54.7°F 54.0°F / 54.9°F 35.4°F / 54.9°F 30.11 inHg 38% 0.01″
03/09/2020 01:24 PM 53.1°F 51.1°F / 53.1°F 35.4°F / 53.1°F 30.14 inHg 52% 0.01″
03/09/2020 12:24 PM 49.6°F 48.7°F / 49.6°F 35.4°F / 49.6°F 30.16 inHg 59% 0.01″
03/09/2020 11:24 AM 47.1°F 46.0°F / 47.1°F 35.4°F / 47.1°F 30.16 inHg 69% 0.01″
03/09/2020 10:24 AM 43.5°F 40.8°F / 43.5°F 35.4°F / 43.5°F 30.16 inHg 87% 0.01″
03/09/2020 09:24 AM 38.1°F 36.3°F / 38.1°F 35.4°F / 41.2°F 30.14 inHg 94% 0.01″
03/09/2020 08:24 AM 36.1°F 36.1°F / 36.3°F 35.4°F / 41.2°F 30.10 inHg 94% 0.01″
03/09/2020 07:24 AM 36.0°F 35.4°F / 36.1°F 35.4°F / 41.2°F 30.07 inHg 94% 0.01″
03/09/2020 06:23 AM 35.4°F 35.4°F / 35.8°F 35.4°F / 41.2°F 30.05 inHg 93% 0.01″
03/09/2020 05:23 AM 35.8°F 35.8°F / 36.1°F 35.8°F / 41.2°F 30.03 inHg 93% 0.01″
03/09/2020 04:23 AM 37.0°F 37.0°F / 37.4°F 37.0°F / 41.2°F 30.00 inHg 92% 0.01″
03/09/2020 03:23 AM 38.5°F 38.5°F / 39.4°F 38.5°F / 41.2°F 30.00 inHg 92% 0.00″
03/09/2020 02:23 AM 40.5°F 40.5°F / 40.8°F 40.5°F / 41.2°F 29.99 inHg 92% 0.00″
03/09/2020 01:23 AM 40.6°F 40.6°F / 40.8°F 40.6°F / 41.2°F 29.98 inHg 92% 0.00″
03/09/2020 12:23 AM 40.8°F 40.8°F / 41.2°F 40.8°F / 41.2°F 29.95 inHg 93% 0.00″
03/08/2020 11:23 PM 40.8°F 40.6°F / 40.8°F 40.6°F / 51.3°F 29.94 inHg 94% 1.07″
03/08/2020 10:23 PM 40.8°F 40.8°F / 41.2°F 40.8°F / 51.3°F 29.92 inHg 94% 1.07″
03/08/2020 09:23 PM 41.0°F 41.0°F / 41.2°F 41.0°F / 51.3°F 29.90 inHg 94% 1.07″
03/08/2020 08:23 PM 41.7°F 41.7°F / 42.3°F 41.7°F / 51.3°F 29.86 inHg 94% 1.07″
03/08/2020 07:23 PM 43.0°F 43.0°F / 43.3°F 43.0°F / 51.3°F 29.86 inHg 94% 0.99″
03/08/2020 06:23 PM 43.9°F 43.9°F / 44.8°F 43.5°F / 51.3°F 29.82 inHg 93% 0.78″
03/08/2020 05:23 PM 45.0°F 44.8°F / 45.0°F 43.5°F / 51.3°F 29.78 inHg 93% 0.63″
03/08/2020 04:23 PM 44.8°F 44.8°F / 45.0°F 43.5°F / 51.3°F 29.78 inHg 92% 0.56″
03/08/2020 03:23 PM 45.7°F 45.7°F / 45.9°F 43.5°F / 51.3°F 29.78 inHg 91% 0.42″
03/08/2020 02:23 PM 46.4°F 46.4°F / 46.8°F 43.5°F / 51.3°F 29.77 inHg 87% 0.28″
03/08/2020 01:23 PM 47.1°F 46.9°F / 47.1°F 43.5°F / 51.3°F 29.81 inHg 84% 0.23″
03/08/2020 12:22 PM 47.8°F 47.7°F / 48.0°F 43.5°F / 51.3°F 29.84 inHg 78% 0.23″
03/08/2020 11:22 AM 46.8°F 45.3°F / 46.8°F 43.5°F / 51.3°F 29.83 inHg 85% 0.23″
03/08/2020 10:22 AM 43.7°F 43.5°F / 44.4°F 43.5°F / 51.3°F 29.85 inHg 87% 0.23″
03/08/2020 09:22 AM 45.1°F 45.0°F / 45.1°F 44.1°F / 51.3°F 29.82 inHg 90% 0.20″
03/08/2020 08:22 AM 44.2°F 44.1°F / 44.2°F 44.1°F / 51.3°F 29.82 inHg 91% 0.20″
03/08/2020 07:22 AM 44.2°F 44.2°F / 44.6°F 44.2°F / 51.3°F 29.83 inHg 90% 0.19″
03/08/2020 06:22 AM 45.0°F 45.0°F / 45.1°F 45.0°F / 51.3°F 29.83 inHg 89% 0.17″
03/08/2020 05:22 AM 45.9°F 45.9°F / 46.9°F 45.9°F / 51.3°F 29.84 inHg 86% 0.10″
03/08/2020 04:22 AM 48.7°F 48.7°F / 49.3°F 48.7°F / 51.3°F 29.83 inHg 76% 0.00″
03/08/2020 03:22 AM 50.2°F 50.2°F / 50.5°F 48.9°F / 51.3°F 29.84 inHg 70% 0.00″
03/08/2020 01:21 AM 51.1°F 50.9°F / 51.3°F 48.9°F / 51.3°F 29.87 inHg 67% 0.00″
03/08/2020 12:21 AM 49.6°F 48.9°F / 49.6°F 48.9°F / 49.6°F 29.88 inHg 70% 0.00″
03/07/2020 11:21 PM 49.6°F 49.5°F / 50.2°F 37.0°F / 62.2°F 29.89 inHg 74% 0.01″
03/07/2020 10:21 PM 48.6°F 47.7°F / 48.6°F 37.0°F / 62.2°F 29.91 inHg 74% 0.01″
03/07/2020 09:21 PM 47.8°F 47.8°F / 50.5°F 37.0°F / 62.2°F 29.94 inHg 79% 0.01″
03/07/2020 08:21 PM 50.2°F 50.2°F / 50.5°F 37.0°F / 62.2°F 29.94 inHg 58% 0.00″
03/07/2020 07:21 PM 51.6°F 51.6°F / 52.0°F 37.0°F / 62.2°F 29.94 inHg 53% 0.00″
03/07/2020 06:20 PM 54.5°F 54.5°F / 56.5°F 37.0°F / 62.2°F 29.91 inHg 48% 0.00″
03/07/2020 05:20 PM 57.9°F 57.9°F / 59.7°F 37.0°F / 62.2°F 29.91 inHg 44% 0.00″
03/07/2020 04:20 PM 62.2°F 62.1°F / 62.2°F 37.0°F / 62.2°F 29.90 inHg 40% 0.00″
03/07/2020 03:20 PM 61.9°F 61.0°F / 61.9°F 37.0°F / 61.9°F 29.94 inHg 40% 0.00″
03/07/2020 02:20 PM 61.9°F 60.4°F / 61.9°F 37.0°F / 61.9°F 29.96 inHg 37% 0.00″
03/07/2020 01:20 PM 60.3°F 59.2°F / 60.4°F 37.0°F / 60.4°F 29.99 inHg 40% 0.00″
03/07/2020 12:20 PM 56.7°F 56.3°F / 56.8°F 37.0°F / 57.4°F 30.04 inHg 43% 0.00″
03/07/2020 11:20 AM 56.8°F 54.7°F / 56.8°F 37.0°F / 56.8°F 30.06 inHg 43% 0.00″
03/07/2020 10:20 AM 54.3°F 53.2°F / 54.3°F 37.0°F / 54.3°F 30.07 inHg 46% 0.00″
03/07/2020 09:20 AM 54.0°F 53.4°F / 54.3°F 37.0°F / 54.3°F 30.08 inHg 47% 0.00″
03/07/2020 08:20 AM 45.0°F 42.8°F / 45.0°F 37.0°F / 45.0°F 30.08 inHg 68% 0.00″
03/07/2020 07:20 AM 38.7°F 37.4°F / 38.7°F 37.0°F / 42.3°F 30.07 inHg 71% 0.00″
03/07/2020 06:20 AM 37.8°F 37.8°F / 37.9°F 37.0°F / 42.3°F 30.06 inHg 69% 0.00″
03/07/2020 05:20 AM 37.8°F 37.6°F / 37.9°F 37.0°F / 42.3°F 30.05 inHg 69% 0.00″
03/07/2020 04:19 AM 37.2°F 37.2°F / 37.8°F 37.2°F / 42.3°F 30.05 inHg 67% 0.00″
03/07/2020 03:19 AM 39.2°F 39.2°F / 39.7°F 39.2°F / 42.3°F 30.06 inHg 63% 0.00″
03/07/2020 02:19 AM 39.9°F 39.9°F / 40.6°F 39.7°F / 42.3°F 30.07 inHg 63% 0.00″
03/07/2020 01:19 AM 40.8°F 40.8°F / 41.5°F 39.7°F / 42.3°F 30.09 inHg 59% 0.00″
03/07/2020 12:18 AM 41.2°F 39.7°F / 41.2°F 39.7°F / 41.2°F 30.11 inHg 57% 0.00″
03/06/2020 11:18 PM 41.7°F 41.7°F / 42.6°F 36.7°F / 59.0°F 30.14 inHg 57% 0.00″
03/06/2020 10:18 PM 43.5°F 43.5°F / 43.9°F 36.7°F / 59.0°F 30.15 inHg 55% 0.00″
03/06/2020 09:18 PM 42.8°F 42.4°F / 42.8°F 36.7°F / 59.0°F 30.17 inHg 61% 0.00″
03/06/2020 08:18 PM 43.0°F 43.0°F / 43.2°F 36.7°F / 59.0°F 30.15 inHg 62% 0.00″
03/06/2020 07:18 PM 44.1°F 44.1°F / 44.6°F 36.7°F / 59.0°F 30.15 inHg 55% 0.00″
03/06/2020 06:17 PM 46.6°F 46.6°F / 48.6°F 36.7°F / 59.0°F 30.13 inHg 46% 0.00″
03/06/2020 05:17 PM 53.2°F 53.1°F / 54.7°F 36.7°F / 59.0°F 30.11 inHg 37% 0.00″
03/06/2020 04:17 PM 58.8°F 58.5°F / 58.8°F 36.7°F / 59.0°F 30.12 inHg 28% 0.00″
03/06/2020 03:17 PM 58.5°F 57.9°F / 58.5°F 36.7°F / 58.5°F 30.12 inHg 27% 0.00″
03/06/2020 02:17 PM 55.9°F 55.9°F / 56.1°F 36.7°F / 56.5°F 30.15 inHg 41% 0.00″
03/06/2020 01:17 PM 54.5°F 54.1°F / 54.7°F 36.7°F / 54.7°F 30.17 inHg 40% 0.00″
03/06/2020 12:17 PM 52.3°F 52.2°F / 52.3°F 36.7°F / 52.3°F 30.24 inHg 45% 0.00″